M I D A S
Marine Information and Data Acquisition System
Tripno 2151 of the Zeeleeuw from 2011-07-26 06:31:55 to 2011-07-26 13:52:39
Back to CruiseResearch ActivitiesStationsMapUnderway DataData graphs

EquipmentUnitsComment
TimeDGPSUTC
LatitudeDGPSDM.mWGS84
LongitudeDGPSDM.mWGS84
TemperatureSBE03/SBE38deg celciusITS90
ConductivitySBE21S/mITS90
SalinitySBE21 Practical Salinity Units
ChlorophylAChelsea fluorimeterg/lCalibrated in Aceton
Missing or incorrect values are displayed as -999
Sea surface data collected by the RV Zeeleeuw from 2011-07-26 06:33:15 to 2011-07-26 13:58:13
                                                                                    Next 1000 lines
Time Latitude Longitude Temperature Conductivity Salinity ChlorophylA
2011-07-26 06:33:25 51°13.636 2°56.016 20.6309 0.059366 0.317288 -3.020363
2011-07-26 06:33:30 51°13.637 2°56.012 20.5916 0.059366 0.317283 -3.020363
2011-07-26 06:33:35 51°13.638 2°56.008 20.6545 0.059366 0.317277 -3.020363
2011-07-26 06:33:40 51°13.639 2°56.002 20.6173 0.059366 0.317272 -3.020363
2011-07-26 06:33:46 51°13.641 2°55.995 20.6528 0.059366 0.317266 -3.020363
2011-07-26 06:33:52 51°13.643 2°55.987 20.6282 0.059366 0.317261 -3.020363
2011-07-26 06:33:57 51°13.644 2°55.981 20.6628 0.059366 0.317261 -3.020363
2011-07-26 06:34:03 51°13.645 2°55.973 20.6586 0.059366 0.317261 -3.020363
2011-07-26 06:34:08 51°13.646 2°55.967 20.6599 0.059366 0.317261 -3.020363
2011-07-26 06:34:14 51°13.648 2°55.959 20.659 0.059366 0.317261 -3.020363
2011-07-26 06:34:19 51°13.649 2°55.952 20.6588 0.059366 0.317261 -3.020363
2011-07-26 06:34:24 51°13.65 2°55.946 20.6642 0.059366 0.317266 -3.020363
2011-07-26 06:34:28 51°13.651 2°55.941 20.6782 0.059366 0.317266 -3.020363
2011-07-26 06:34:34 51°13.651 2°55.934 20.6788 0.059366 0.317266 -3.020363
2011-07-26 06:34:39 51°13.652 2°55.928 20.6614 0.059366 0.317272 -3.020363
2011-07-26 06:34:44 51°13.653 2°55.922 20.6761 0.059366 0.317272 -3.020363
2011-07-26 06:34:48 51°13.654 2°55.917 20.6744 0.059366 0.317277 -3.020363
2011-07-26 06:34:54 51°13.656 2°55.91 20.6763 0.059366 0.317277 -3.020363
2011-07-26 06:34:59 51°13.657 2°55.903 20.6767 0.059366 0.317277 -3.020363
2011-07-26 06:35:04 51°13.659 2°55.897 20.6747 0.059366 0.317277 -3.020363
2011-07-26 06:35:09 51°13.66 2°55.891 20.6731 0.059366 0.317277 -3.020363
2011-07-26 06:35:15 51°13.662 2°55.884 20.6812 0.059366 0.317277 -3.020363
2011-07-26 06:35:20 51°13.664 2°55.878 20.6784 0.059366 0.317277 -3.020363
2011-07-26 06:35:24 51°13.665 2°55.874 20.6862 0.059366 0.317272 -3.020363
2011-07-26 06:35:29 51°13.668 2°55.868 20.6796 0.059366 0.317272 -3.020363
2011-07-26 06:35:34 51°13.67 2°55.862 20.6755 0.059366 0.317272 -3.020363
2011-07-26 06:35:39 51°13.672 2°55.856 20.6762 0.059366 0.317272 -3.020363
2011-07-26 06:35:44 51°13.674 2°55.85 20.6713 0.059366 0.317272 -3.020363
2011-07-26 06:35:49 51°13.677 2°55.844 20.6689 0.059366 0.317266 -3.020363
2011-07-26 06:35:54 51°13.679 2°55.838 20.6661 0.059366 0.317266 -3.020363
2011-07-26 06:35:59 51°13.682 2°55.832 20.6805 0.059366 0.317266 -3.020363
2011-07-26 06:36:04 51°13.686 2°55.826 20.6763 0.059366 0.317266 -3.020363
2011-07-26 06:36:09 51°13.689 2°55.82 20.6802 0.059366 0.317261 -3.020363
2011-07-26 06:36:14 51°13.693 2°55.813 20.6671 0.059366 0.317266 -3.020363
2011-07-26 06:36:19 51°13.696 2°55.807 20.6748 0.059366 0.317266 -3.020363
2011-07-26 06:36:25 51°13.701 2°55.799 20.6746 0.059366 0.317266 -3.020363
2011-07-26 06:36:30 51°13.705 2°55.793 20.6751 0.059366 0.317266 -3.020363
2011-07-26 06:36:34 51°13.708 2°55.787 20.678 0.059366 0.317266 -3.020363
2011-07-26 06:36:39 51°13.712 2°55.781 20.6684 0.059366 0.317266 -3.020363
2011-07-26 06:36:44 51°13.716 2°55.774 20.6748 0.059366 0.317266 -3.020363
2011-07-26 06:36:49 51°13.721 2°55.767 20.6675 0.059366 0.317266 -3.020363
2011-07-26 06:36:54 51°13.725 2°55.76 20.6716 0.059366 0.317272 -3.020363
2011-07-26 06:36:59 51°13.729 2°55.754 20.68 0.059366 0.317272 -3.020363
2011-07-26 06:37:04 51°13.734 2°55.747 20.6734 0.059366 0.317272 -3.020363
2011-07-26 06:37:09 51°13.738 2°55.74 20.6929 0.059366 0.317272 -3.020363
2011-07-26 06:37:14 51°13.742 2°55.734 20.6656 0.059366 0.317272 -3.020363
2011-07-26 06:37:19 51°13.745 2°55.727 20.6941 0.059366 0.317272 -3.020363
2011-07-26 06:37:24 51°13.749 2°55.721 20.6942 0.059366 0.317272 -3.020363
2011-07-26 06:37:29 51°13.752 2°55.715 20.6873 0.059366 0.317272 -3.020363
2011-07-26 06:37:34 51°13.756 2°55.709 20.6809 0.059366 0.317272 -3.020363
2011-07-26 06:37:39 51°13.759 2°55.703 20.6789 0.059366 0.317272 -3.020363
2011-07-26 06:37:44 51°13.762 2°55.698 20.6655 0.059366 0.317272 -3.020363
2011-07-26 06:37:49 51°13.765 2°55.692 20.6852 0.059366 0.317272 -3.020363
2011-07-26 06:37:54 51°13.769 2°55.687 20.6838 0.059366 0.317272 -3.020363
2011-07-26 06:37:59 51°13.773 2°55.682 20.6809 0.059366 0.317272 -3.020363
2011-07-26 06:38:04 51°13.777 2°55.677 20.7009 0.059366 0.317277 -3.020363
2011-07-26 06:38:09 51°13.782 2°55.673 20.6898 0.059366 0.317277 -3.020363
2011-07-26 06:38:14 51°13.787 2°55.668 20.6927 0.059366 0.317277 -3.020363
2011-07-26 06:38:19 51°13.792 2°55.664 20.6877 0.059366 0.317277 -3.020363
2011-07-26 06:38:24 51°13.797 2°55.661 20.6877 0.059366 0.317283 -3.020363
2011-07-26 06:38:29 51°13.802 2°55.658 20.6952 0.059366 0.317277 -3.020363
2011-07-26 06:38:34 51°13.808 2°55.655 20.6906 0.059366 0.317277 -3.020363
2011-07-26 06:38:39 51°13.814 2°55.652 20.6841 0.059366 0.317283 -3.020363
2011-07-26 06:38:44 51°13.82 2°55.65 20.6712 0.059366 0.317283 -3.020363
2011-07-26 06:38:49 51°13.825 2°55.648 20.6901 0.059366 0.317277 -3.020363
2011-07-26 06:38:54 51°13.831 2°55.646 20.6633 0.059366 0.317283 -3.020363
2011-07-26 06:38:59 51°13.837 2°55.644 20.6721 0.059366 0.317283 -3.020363
2011-07-26 06:39:04 51°13.842 2°55.643 20.6616 0.059366 0.317283 -3.020363
2011-07-26 06:39:09 51°13.848 2°55.641 20.6466 0.059366 0.317283 -3.020363
2011-07-26 06:39:14 51°13.854 2°55.64 20.6638 0.059366 0.317283 -3.020363
2011-07-26 06:39:19 51°13.859 2°55.639 20.691 0.059366 0.317283 -3.020363
2011-07-26 06:39:24 51°13.865 2°55.638 20.6635 0.059366 0.317277 -3.020363
2011-07-26 06:39:29 51°13.871 2°55.636 20.6624 0.059366 0.317277 -3.020363
2011-07-26 06:39:34 51°13.876 2°55.635 20.6593 0.059366 0.317277 -3.020363
2011-07-26 06:39:39 51°13.882 2°55.634 20.6764 0.059366 0.317283 -3.020363
2011-07-26 06:39:44 51°13.887 2°55.634 20.6745 0.059366 0.317283 -3.020363
2011-07-26 06:39:49 51°13.892 2°55.633 20.6635 0.059366 0.317283 -3.020363
2011-07-26 06:39:54 51°13.898 2°55.633 20.7081 0.059366 0.317283 -3.020363
2011-07-26 06:39:59 51°13.903 2°55.633 20.7076 0.059366 0.317283 -3.020363
2011-07-26 06:40:04 51°13.908 2°55.634 20.7046 0.059366 0.317283 -3.020363
2011-07-26 06:40:09 51°13.912 2°55.635 20.6736 0.059366 0.317283 -3.020363
2011-07-26 06:40:14 51°13.917 2°55.636 20.6733 0.059366 0.317288 -3.020363
2011-07-26 06:40:19 51°13.921 2°55.637 20.6772 0.059366 0.317288 -3.020363
2011-07-26 06:40:25 51°13.925 2°55.639 20.699 0.059366 0.317288 -3.020363
2011-07-26 06:40:30 51°13.929 2°55.64 20.3488 0.109748 0.602835 -3.020363
2011-07-26 06:40:34 51°13.932 2°55.642 19.9005 0.109748 0.602835 -3.020363
2011-07-26 06:40:39 51°13.935 2°55.643 19.5794 0.202915 1.144172 -3.020363
2011-07-26 06:40:44 51°13.939 2°55.645 19.0661 0.176382 0.988597 -3.020363
2011-07-26 06:40:49 51°13.942 2°55.647 18.8092 0.176485 0.985169 -3.020363
2011-07-26 06:40:54 51°13.945 2°55.649 18.68 0.380143 2.209334 -3.020363
2011-07-26 06:40:59 51°13.947 2°55.65 18.5001 0.380143 2.209334 -3.020363
2011-07-26 06:41:04 51°13.949 2°55.651 18.4508 0.428292 2.509635 -3.020363
2011-07-26 06:41:09 51°13.95 2°55.652 18.3873 0.580897 3.4849 -3.020363
2011-07-26 06:41:14 51°13.95 2°55.652 18.37 0.899425 5.592686 -3.020363
2011-07-26 06:41:19 51°13.95 2°55.652 18.2665 1.190436 7.620646 -3.020363
2011-07-26 06:41:24 51°13.949 2°55.651 18.2468 2.140777 14.527731 -3.020363
2011-07-26 06:41:29 51°13.948 2°55.649 18.2235 2.954259 20.827946 -3.020363
2011-07-26 06:41:34 51°13.946 2°55.647 18.1768 2.954259 20.827946 -3.020363
2011-07-26 06:41:39 51°13.944 2°55.644 18.1578 3.612501 26.157873 -3.020363
2011-07-26 06:41:44 51°13.942 2°55.641 18.153 3.856735 28.23705 -3.020363
2011-07-26 06:41:49 51°13.941 2°55.637 18.1643 3.933926 28.949069 -3.020363
2011-07-26 06:41:54 51°13.939 2°55.633 18.0988 3.953926 29.185677 -3.020363
2011-07-26 06:41:59 51°13.938 2°55.63 18.082 3.963667 29.313304 -3.020363
2011-07-26 06:42:04 51°13.937 2°55.627 18.077 3.963667 29.313304 -3.020363
2011-07-26 06:42:09 51°13.936 2°55.626 17.9969 3.972787 29.422728 -3.020363
2011-07-26 06:42:14 51°13.936 2°55.624 17.9964 3.97227 29.460827 -3.020363
2011-07-26 06:42:19 51°13.935 2°55.624 17.9448 3.973203 29.489483 -3.020363
2011-07-26 06:42:23 51°13.935 2°55.625 17.9539 3.969369 29.478781 -3.020363
2011-07-26 06:42:29 51°13.934 2°55.627 17.9306 3.969369 29.478781 -3.020363
2011-07-26 06:42:34 51°13.934 2°55.63 17.9258 3.960147 29.428615 -3.020363
2011-07-26 06:42:39 51°13.933 2°55.633 17.9388 3.940563 29.287028 -3.020363
2011-07-26 06:42:44 51°13.933 2°55.637 17.926 3.921187 29.157775 -3.020363
2011-07-26 06:42:49 51°13.933 2°55.64 17.8959 3.909064 29.089522 -3.020363
2011-07-26 06:42:54 51°13.932 2°55.641 17.9103 3.902434 29.059349 -3.020363
2011-07-26 06:42:59 51°13.932 2°55.64 17.8925 3.902434 29.059349 -3.020363
2011-07-26 06:43:04 51°13.931 2°55.637 17.9085 3.899326 29.052151 -3.020363
2011-07-26 06:43:09 51°13.931 2°55.632 17.8956 3.899222 29.067045 -3.020363
2011-07-26 06:43:14 51°13.931 2°55.626 17.9322 3.904092 29.117573 -3.020363
2011-07-26 06:43:19 51°13.933 2°55.619 17.9326 3.902331 29.111424 -3.020363
2011-07-26 06:43:24 51°13.934 2°55.613 17.8773 3.898601 29.092884 -3.020363
2011-07-26 06:43:29 51°13.936 2°55.607 17.87 3.897462 29.092452 -3.020363
2011-07-26 06:43:34 51°13.938 2°55.601 17.8546 3.897462 29.092452 -3.020363
2011-07-26 06:43:39 51°13.941 2°55.595 17.8622 3.895908 29.082936 -3.020363
2011-07-26 06:43:43 51°13.944 2°55.591 17.8275 3.896115 29.08522 -3.020363
2011-07-26 06:43:48 51°13.948 2°55.585 17.8129 3.896115 29.082399 -3.020363
2011-07-26 06:43:54 51°13.954 2°55.578 17.8231 3.896011 29.082103 -3.020363
2011-07-26 06:43:59 51°13.96 2°55.573 17.8133 3.89943 29.120659 -3.020363
2011-07-26 06:44:03 51°13.964 2°55.569 17.8162 3.89943 29.120659 -3.020363
2011-07-26 06:44:08 51°13.97 2°55.563 17.8101 3.901296 29.148597 -3.020363
2011-07-26 06:44:13 51°13.977 2°55.558 17.8112 3.902125 29.162848 -3.020363
2011-07-26 06:44:18 51°13.983 2°55.552 17.8109 3.905751 29.20945 -3.020363
2011-07-26 06:44:23 51°13.99 2°55.546 17.807 3.910621 29.257356 -3.020363
2011-07-26 06:44:27 51°13.996 2°55.541 17.8091 3.910621 29.257356 -3.020363
2011-07-26 06:44:32 51°14.003 2°55.534 17.8183 3.918393 29.330593 -3.020363
2011-07-26 06:44:37 51°14.011 2°55.528 17.8183 3.926578 29.402199 -3.020363
2011-07-26 06:44:42 51°14.019 2°55.521 17.8039 3.936318 29.487947 -3.020363
2011-07-26 06:44:47 51°14.027 2°55.514 17.8091 3.942432 29.542937 -3.020363
2011-07-26 06:44:51 51°14.033 2°55.508 17.8141 3.946577 29.579804 -3.020363
2011-07-26 06:44:56 51°14.042 2°55.5 17.8091 3.946577 29.579804 -3.020363
2011-07-26 06:45:01 51°14.051 2°55.493 17.8079 3.946991 29.584989 -3.020363
2011-07-26 06:45:06 51°14.06 2°55.486 17.8076 3.95352 29.639449 -3.020363
2011-07-26 06:45:11 51°14.069 2°55.477 17.7972 3.959323 29.68787 -3.020363
2011-07-26 06:45:15 51°14.077 2°55.47 17.7962 3.964711 29.735159 -3.020363
2011-07-26 06:45:21 51°14.088 2°55.46 17.8033 3.969581 29.776399 -3.020363
2011-07-26 06:45:26 51°14.099 2°55.452 17.7982 3.974866 29.821111 -3.020363
2011-07-26 06:45:31 51°14.109 2°55.443 17.7975 3.974866 29.821111 -3.020363
2011-07-26 06:45:35 51°14.117 2°55.435 17.7983 3.979633 29.862087 -3.020363
2011-07-26 06:45:40 51°14.127 2°55.426 17.7964 3.984193 29.901344 -3.020363
2011-07-26 06:45:45 51°14.137 2°55.417 17.7953 3.985955 29.918977 -3.020363
2011-07-26 06:45:50 51°14.147 2°55.408 17.7891 3.987509 29.933716 -3.020363
2011-07-26 06:45:56 51°14.16 2°55.397 17.7907 3.987509 29.933716 -3.020363
2011-07-26 06:46:01 51°14.17 2°55.387 17.7842 3.989996 29.956254 -3.020363
2011-07-26 06:46:05 51°14.178 2°55.379 17.785 3.992587 29.979079 -3.020363
2011-07-26 06:46:11 51°14.192 2°55.368 17.7858 3.995178 30.001908 -3.020363
2011-07-26 06:46:16 51°14.202 2°55.359 17.7832 3.998183 30.027623 -3.020363
2011-07-26 06:46:20 51°14.211 2°55.351 17.7751 4.000878 30.051327 -3.020363
2011-07-26 06:46:25 51°14.222 2°55.341 17.7802 4.000878 30.051327 -3.020363
2011-07-26 06:46:31 51°14.234 2°55.329 17.7719 4.003676 30.077075 -3.020363
2011-07-26 06:46:36 51°14.245 2°55.319 17.7741 4.00637 30.101376 -3.020363
2011-07-26 06:46:40 51°14.254 2°55.311 17.7665 4.009894 30.133207 -3.020363
2011-07-26 06:46:46 51°14.267 2°55.3 17.7757 4.014558 30.172826 -3.020363
2011-07-26 06:46:51 51°14.278 2°55.29 17.7576 4.018185 30.205544 -3.020363
2011-07-26 06:46:56 51°14.289 2°55.28 17.757 4.020361 30.225533 -3.020363
2011-07-26 06:47:01 51°14.3 2°55.271 17.7471 4.020361 30.225533 -3.020363
2011-07-26 06:47:07 51°14.313 2°55.26 17.7412 4.02347 30.253337 -3.020363
2011-07-26 06:47:13 51°14.326 2°55.248 17.7449 4.026476 30.28087 -3.020363
2011-07-26 06:47:19 51°14.339 2°55.235 17.7604 4.029171 30.305215 -3.020363
2011-07-26 06:47:24 51°14.349 2°55.224 17.765 4.03114 30.323487 -3.020363
2011-07-26 06:47:29 51°14.36 2°55.213 17.752 4.034975 30.359764 -3.020363
2011-07-26 06:47:34 51°14.371 2°55.201 17.7477 4.034975 30.359764 -3.020363
2011-07-26 06:47:39 51°14.382 2°55.189 17.7436 4.038498 30.394044 -3.020363
2011-07-26 06:47:44 51°14.392 2°55.177 17.7427 4.043473 30.441101 -3.020363
2011-07-26 06:47:49 51°14.403 2°55.165 17.7348 4.048448 30.484614 -3.020363
2011-07-26 06:47:54 51°14.414 2°55.152 17.7431 4.054978 30.538206 -3.020363
2011-07-26 06:47:59 51°14.425 2°55.14 17.745 4.054978 30.538206 -3.020363
2011-07-26 06:48:04 51°14.436 2°55.128 17.7498 4.061818 30.594418 -3.020363
2011-07-26 06:48:09 51°14.447 2°55.115 17.7422 4.067415 30.643191 -3.020363
2011-07-26 06:48:14 51°14.459 2°55.104 17.7568 4.071457 30.677728 -3.020363
2011-07-26 06:48:18 51°14.468 2°55.094 17.7469 4.07239 30.687957 -3.020363
2011-07-26 06:48:23 51°14.48 2°55.08 17.7412 4.071665 30.684859 -3.020363
2011-07-26 06:48:29 51°14.493 2°55.065 17.7432 4.071665 30.684859 -3.020363
2011-07-26 06:48:34 51°14.505 2°55.052 17.754 4.069074 30.664296 -3.020363
2011-07-26 06:48:39 51°14.518 2°55.039 17.758 4.070317 30.673543 -3.020363
2011-07-26 06:48:44 51°14.531 2°55.028 17.7676 4.069799 30.668593 -3.020363
2011-07-26 06:48:49 51°14.544 2°55.016 17.7467 4.071043 30.676642 -3.020363
2011-07-26 06:48:54 51°14.558 2°55.006 17.7472 4.074049 30.702483 -3.020363
2011-07-26 06:48:59 51°14.572 2°54.995 17.7402 4.07778 30.735023 -3.020363
2011-07-26 06:49:04 51°14.585 2°54.983 17.7412 4.07778 30.735023 -3.020363
2011-07-26 06:49:09 51°14.598 2°54.971 17.7341 4.081719 30.767509 -3.020363
2011-07-26 06:49:14 51°14.611 2°54.958 17.7389 4.085865 30.799336 -3.020363
2011-07-26 06:49:19 51°14.624 2°54.945 17.7414 4.090011 30.832367 -3.020363
2011-07-26 06:49:24 51°14.637 2°54.933 17.7308 4.094053 30.868144 -3.020363
2011-07-26 06:49:29 51°14.651 2°54.92 17.7391 4.09737 30.898435 -3.020363
2011-07-26 06:49:34 51°14.664 2°54.906 17.7346 4.09737 30.898435 -3.020363
2011-07-26 06:49:39 51°14.677 2°54.893 17.7248 4.102138 30.94154 -3.020363
2011-07-26 06:49:43 51°14.687 2°54.882 17.722 4.107425 30.988415 -3.020363
2011-07-26 06:49:48 51°14.7 2°54.869 17.7096 4.112296 31.030001 -3.020363
2011-07-26 06:49:53 51°14.713 2°54.856 17.713 4.116961 31.07046 -3.020363
2011-07-26 06:49:58 51°14.726 2°54.843 17.7052 4.116961 31.07046 -3.020363
2011-07-26 06:50:03 51°14.739 2°54.83 17.6954 4.120278 31.100196 -3.020363
2011-07-26 06:50:08 51°14.752 2°54.816 17.6936 4.125254 31.143292 -3.020363
2011-07-26 06:50:13 51°14.764 2°54.802 17.706 4.129504 31.180899 -3.020363
2011-07-26 06:50:18 51°14.777 2°54.788 17.689 4.132614 31.211354 -3.020363
2011-07-26 06:50:23 51°14.789 2°54.774 17.6862 4.136656 31.24907 -3.020363
2011-07-26 06:50:28 51°14.802 2°54.759 17.6858 4.139559 31.277802 -3.020363
2011-07-26 06:50:33 51°14.814 2°54.744 17.68 4.139559 31.277802 -3.020363
2011-07-26 06:50:38 51°14.826 2°54.729 17.6836 4.142254 31.306023 -3.020363
2011-07-26 06:50:43 51°14.839 2°54.713 17.6779 4.145468 31.336788 -3.020363
2011-07-26 06:50:47 51°14.85 2°54.701 17.666 4.149304 31.371582 -3.020363
2011-07-26 06:50:52 51°14.863 2°54.685 17.6685 4.150962 31.388026 -3.020363
2011-07-26 06:50:57 51°14.876 2°54.669 17.6607 4.153865 31.416195 -3.020363
2011-07-26 06:51:02 51°14.889 2°54.653 17.6559 4.153865 31.416195 -3.020363
2011-07-26 06:51:08 51°14.905 2°54.633 17.6618 4.155524 31.432648 -3.020363
2011-07-26 06:51:13 51°14.919 2°54.617 17.6528 4.156975 31.447355 -3.020363
2011-07-26 06:51:19 51°14.936 2°54.6 17.6562 4.158737 31.465921 -3.020363
2011-07-26 06:51:24 51°14.95 2°54.585 17.6497 4.160707 31.486243 -3.020363
2011-07-26 06:51:28 51°14.961 2°54.573 17.6442 4.1605 31.488807 -3.020363
2011-07-26 06:51:33 51°14.975 2°54.559 17.6429 4.1605 31.488807 -3.020363
2011-07-26 06:51:38 51°14.989 2°54.543 17.6411 4.163299 31.516142 -3.020363
2011-07-26 06:51:43 51°15.002 2°54.527 17.6385 4.163092 31.516242 -3.020363
2011-07-26 06:51:48 51°15.016 2°54.512 17.6356 4.164854 31.534213 -3.020363
2011-07-26 06:51:53 51°15.029 2°54.496 17.6471 4.165476 31.541938 -3.020363
2011-07-26 06:51:58 51°15.043 2°54.481 17.6441 4.165476 31.541938 -3.020363
2011-07-26 06:52:03 51°15.057 2°54.466 17.633 4.166409 31.551055 -3.020363
2011-07-26 06:52:08 51°15.07 2°54.45 17.6262 4.167446 31.562904 -3.020363
2011-07-26 06:52:13 51°15.084 2°54.434 17.6282 4.167342 31.564501 -3.020363
2011-07-26 06:52:17 51°15.095 2°54.422 17.6293 4.167031 31.56311 -3.020363
2011-07-26 06:52:22 51°15.109 2°54.407 17.6331 4.169934 31.590116 -3.020363
2011-07-26 06:52:28 51°15.126 2°54.389 17.6304 4.170763 31.597745 -3.020363
2011-07-26 06:52:33 51°15.14 2°54.374 17.6322 4.170763 31.597745 -3.020363
2011-07-26 06:52:37 51°15.152 2°54.362 17.6293 4.171593 31.606612 -3.020363
2011-07-26 06:52:42 51°15.166 2°54.348 17.631 4.172941 31.621723 -3.020363
2011-07-26 06:52:46 51°15.177 2°54.335 17.6342 4.173666 31.629718 -3.020363
2011-07-26 06:52:52 51°15.194 2°54.316 17.6359 4.173977 31.632968 -3.020363
2011-07-26 06:52:57 51°15.207 2°54.3 17.6357 4.174599 31.638847 -3.020363
2011-07-26 06:53:01 51°15.218 2°54.286 17.6369 4.174599 31.638847 -3.020363
2011-07-26 06:53:06 51°15.231 2°54.269 17.6337 4.175118 31.64323 -3.020363
2011-07-26 06:53:11 51°15.243 2°54.251 17.6402 4.175843 31.649987 -3.020363
2011-07-26 06:53:16 51°15.256 2°54.233 17.6399 4.176465 31.655248 -3.020363
2011-07-26 06:53:21 51°15.268 2°54.215 17.639 4.17688 31.658134 -3.020363
2011-07-26 06:53:25 51°15.278 2°54.201 17.6393 4.17688 31.658134 -3.020363
2011-07-26 06:53:31 51°15.293 2°54.179 17.6481 4.177191 31.660144 -3.020363
2011-07-26 06:53:36 51°15.306 2°54.161 17.6467 4.177917 31.66566 -3.020363
2011-07-26 06:53:41 51°15.318 2°54.144 17.6408 4.178124 31.666793 -3.020363
2011-07-26 06:53:45 51°15.328 2°54.13 17.646 4.178953 31.673186 -3.020363
2011-07-26 06:53:51 51°15.344 2°54.109 17.6405 4.179472 31.676328 -3.020363
2011-07-26 06:53:56 51°15.357 2°54.093 17.6398 4.180301 31.683342 -3.020363
2011-07-26 06:54:01 51°15.371 2°54.076 17.6403 4.180301 31.683342 -3.020363
2011-07-26 06:54:06 51°15.384 2°54.06 17.6404 4.180923 31.68674 -3.020363
2011-07-26 06:54:11 51°15.398 2°54.043 17.6336 4.18113 31.68663 -3.020363
2011-07-26 06:54:16 51°15.412 2°54.028 17.6359 4.182582 31.698283 -3.020363
2011-07-26 06:54:21 51°15.425 2°54.011 17.6281 4.1831 31.702666 -3.020363
2011-07-26 06:54:26 51°15.438 2°53.993 17.6263 4.184344 31.71443 -3.020363
2011-07-26 06:54:31 51°15.451 2°53.976 17.6244 4.184344 31.71443 -3.020363
2011-07-26 06:54:36 51°15.463 2°53.958 17.6237 4.184966 31.720312 -3.020363
2011-07-26 06:54:41 51°15.475 2°53.94 17.6187 4.185899 31.728826 -3.020363
2011-07-26 06:54:46 51°15.487 2°53.921 17.6263 4.186832 31.737962 -3.020363
2011-07-26 06:54:51 51°15.499 2°53.902 17.6263 4.187558 31.745967 -3.020363
2011-07-26 06:54:56 51°15.511 2°53.883 17.6152 4.187558 31.745967 -3.020363
2011-07-26 06:55:01 51°15.523 2°53.864 17.6139 4.188284 31.754596 -3.020363
2011-07-26 06:55:05 51°15.532 2°53.848 17.6136 4.188802 31.762094 -3.020363
2011-07-26 06:55:11 51°15.546 2°53.826 17.6198 4.189113 31.766594 -3.020363
2011-07-26 06:55:16 51°15.558 2°53.807 17.6148 4.189735 31.773727 -3.020363
2011-07-26 06:55:21 51°15.57 2°53.788 17.6169 4.189839 31.775227 -3.020363
2011-07-26 06:55:25 51°15.58 2°53.774 17.6218 4.189839 31.775227 -3.020363
2011-07-26 06:55:31 51°15.594 2°53.752 17.625 4.190254 31.778737 -3.020363
2011-07-26 06:55:36 51°15.606 2°53.734 17.6256 4.190876 31.786494 -3.020363
2011-07-26 06:55:41 51°15.619 2°53.717 17.629 4.191291 31.791874 -3.020363
2011-07-26 06:55:45 51°15.629 2°53.703 17.6321 4.191498 31.794253 -3.020363
2011-07-26 06:55:51 51°15.644 2°53.682 17.627 4.191913 31.797763 -3.020363
2011-07-26 06:55:56 51°15.656 2°53.665 17.6297 4.19212 31.798895 -3.020363
2011-07-26 06:56:01 51°15.669 2°53.648 17.6306 4.19212 31.798895 -3.020363
2011-07-26 06:56:06 51°15.682 2°53.631 17.6303 4.192016 31.796147 -3.020363
2011-07-26 06:56:11 51°15.695 2°53.615 17.6299 4.192224 31.795408 -3.020363
2011-07-26 06:56:16 51°15.708 2°53.598 17.6328 4.192327 31.794416 -3.020363
2011-07-26 06:56:21 51°15.722 2°53.582 17.6322 4.192742 31.797925 -3.020363
2011-07-26 06:56:26 51°15.735 2°53.565 17.6335 4.192949 31.799057 -3.020363
2011-07-26 06:56:31 51°15.749 2°53.549 17.6329 4.192949 31.799057 -3.020363
2011-07-26 06:56:36 51°15.762 2°53.532 17.632 4.193053 31.798687 -3.020363
2011-07-26 06:56:41 51°15.775 2°53.515 17.6351 4.193157 31.798941 -3.020363
2011-07-26 06:56:46 51°15.788 2°53.497 17.636 4.19326 31.799195 -3.020363
2011-07-26 06:56:51 51°15.801 2°53.479 17.6365 4.193364 31.800073 -3.020363
2011-07-26 06:56:56 51°15.813 2°53.462 17.6412 4.193364 31.800073 -3.020363
2011-07-26 06:57:01 51°15.826 2°53.444 17.643 4.193571 31.801204 -3.020363
2011-07-26 06:57:06 51°15.838 2°53.426 17.6479 4.193571 31.801204 -3.020363
2011-07-26 06:57:11 51°15.851 2°53.41 17.6444 4.19409 31.805591 -3.020363
2011-07-26 06:57:16 51°15.864 2°53.394 17.6464 4.194297 31.806722 -3.020363
2011-07-26 06:57:21 51°15.878 2°53.378 17.6437 4.194712 31.808985 -3.020363
2011-07-26 06:57:25 51°15.889 2°53.366 17.6447 4.194712 31.808985 -3.020363
2011-07-26 06:57:31 51°15.906 2°53.347 17.6442 4.195126 31.811247 -3.020363
2011-07-26 06:57:36 51°15.919 2°53.332 17.6446 4.195437 31.811385 -3.020363
2011-07-26 06:57:41 51°15.933 2°53.317 17.6533 4.195541 31.810392 -3.020363
2011-07-26 06:57:45 51°15.945 2°53.306 17.6497 4.196059 31.813532 -3.020363
2011-07-26 06:57:51 51°15.962 2°53.291 17.6501 4.196578 31.817918 -3.020363
2011-07-26 06:57:56 51°15.977 2°53.278 17.6531 4.197096 31.822304 -3.020363
2011-07-26 06:58:01 51°15.992 2°53.267 17.6482 4.197096 31.822304 -3.020363
2011-07-26 06:58:06 51°16.007 2°53.256 17.6472 4.197303 31.823435 -3.020363
2011-07-26 06:58:11 51°16.023 2°53.245 17.6476 4.197822 31.827821 -3.020363
2011-07-26 06:58:16 51°16.039 2°53.235 17.652 4.19326 31.787356 -3.020363
2011-07-26 06:58:21 51°16.055 2°53.226 17.6542 4.198133 31.827334 -3.020363
2011-07-26 06:58:26 51°16.071 2°53.217 17.6553 4.198444 31.828719 -3.020363
2011-07-26 06:58:31 51°16.087 2°53.209 17.657 4.198444 31.828719 -3.020363
2011-07-26 06:58:36 51°16.104 2°53.2 17.6564 4.198858 31.832227 -3.020363
2011-07-26 06:58:41 51°16.12 2°53.192 17.6594 4.199688 31.839869 -3.020363
2011-07-26 06:58:46 51°16.136 2°53.184 17.6648 4.200828 31.849518 -3.020363
2011-07-26 06:58:51 51°16.152 2°53.176 17.665 4.202591 31.863808 -3.020363
2011-07-26 06:58:56 51°16.168 2°53.167 17.6613 4.202591 31.863808 -3.020363
2011-07-26 06:59:01 51°16.184 2°53.158 17.6631 4.204353 31.877474 -3.020363
2011-07-26 06:59:06 51°16.199 2°53.148 17.6649 4.205494 31.885875 -3.020363
2011-07-26 06:59:11 51°16.214 2°53.138 17.6616 4.207049 31.897786 -3.020363
2011-07-26 06:59:16 51°16.23 2°53.128 17.6667 4.208396 31.907942 -3.020363
2011-07-26 06:59:21 51°16.245 2°53.119 17.6611 4.209952 31.919852 -3.020363
2011-07-26 06:59:25 51°16.258 2°53.112 17.6596 4.209952 31.919852 -3.020363
2011-07-26 06:59:31 51°16.277 2°53.1 17.6574 4.210988 31.927376 -3.020363
2011-07-26 06:59:36 51°16.293 2°53.091 17.6577 4.21244 31.939034 -3.020363
2011-07-26 06:59:41 51°16.309 2°53.081 17.6588 4.213373 31.946305 -3.020363
2011-07-26 06:59:45 51°16.321 2°53.073 17.6591 4.214513 31.955957 -3.020363
2011-07-26 06:59:51 51°16.341 2°53.061 17.6591 4.21555 31.964107 -3.020363
2011-07-26 06:59:56 51°16.356 2°53.051 17.6566 4.216172 31.969998 -3.020363
2011-07-26 07:00:01 51°16.372 2°53.041 17.6564 4.216172 31.969998 -3.020363
2011-07-26 07:00:06 51°16.388 2°53.031 17.6577 4.217416 31.981155 -3.020363
2011-07-26 07:00:11 51°16.404 2°53.021 17.6574 4.218246 31.98943 -3.020363
2011-07-26 07:00:16 51°16.419 2°53.01 17.6529 4.218868 31.995323 -3.020363
2011-07-26 07:00:21 51°16.435 2°52.999 17.652 4.219283 31.998833 -3.020363
2011-07-26 07:00:26 51°16.45 2°52.988 17.6547 4.219283 31.998833 -3.020363
2011-07-26 07:00:31 51°16.465 2°52.977 17.6498 4.219697 32.002344 -3.020363
2011-07-26 07:00:36 51°16.48 2°52.965 17.6485 4.219905 32.004727 -3.020363
2011-07-26 07:00:41 51°16.495 2°52.953 17.644 4.219905 32.005354 -3.020363
2011-07-26 07:00:46 51°16.51 2°52.94 17.6457 4.219801 32.005103 -3.020363
2011-07-26 07:00:51 51°16.525 2°52.929 17.6437 4.219594 32.003975 -3.020363
2011-07-26 07:00:56 51°16.54 2°52.916 17.6425 4.219594 32.003975 -3.020363
2011-07-26 07:01:01 51°16.556 2°52.904 17.6389 4.219283 32.001968 -3.020363
2011-07-26 07:01:06 51°16.571 2°52.893 17.6413 4.218972 31.999962 -3.020363
2011-07-26 07:01:11 51°16.586 2°52.881 17.6462 4.218764 32.000087 -3.020363
2011-07-26 07:01:16 51°16.601 2°52.871 17.648 4.21835 31.998456 -3.020363
2011-07-26 07:01:21 51°16.617 2°52.861 17.6407 4.217935 31.996199 -3.020363
2011-07-26 07:01:26 51°16.632 2°52.851 17.6385 4.21752 31.993314 -3.020363
2011-07-26 07:01:31 51°16.648 2°52.842 17.6418 4.21752 31.993314 -3.020363
2011-07-26 07:01:36 51°16.664 2°52.833 17.6378 4.217106 31.991056 -3.020363
2011-07-26 07:01:41 51°16.68 2°52.824 17.6354 4.216898 31.989927 -3.020363
2011-07-26 07:01:46 51°16.696 2°52.815 17.6389 4.216587 31.987293 -3.020363
2011-07-26 07:01:51 51°16.712 2°52.806 17.6352 4.216172 31.983782 -3.020363
2011-07-26 07:01:56 51°16.728 2°52.797 17.6397 4.216172 31.983782 -3.020363
2011-07-26 07:02:01 51°16.744 2°52.79 17.6392 4.216172 31.984408 -3.020363
2011-07-26 07:02:06 51°16.761 2°52.782 17.6381 4.215758 31.98215 -3.020363
2011-07-26 07:02:11 51°16.776 2°52.773 17.6397 4.215758 31.98215 -3.020363
2011-07-26 07:02:16 51°16.792 2°52.765 17.644 4.215758 31.983404 -3.020363
2011-07-26 07:02:21 51°16.809 2°52.757 17.6471 4.215758 31.984031 -3.020363
2011-07-26 07:02:26 51°16.824 2°52.749 17.6443 4.215758 31.984031 -3.020363
2011-07-26 07:02:31 51°16.841 2°52.741 17.6446 4.215758 31.984658 -3.020363
2011-07-26 07:02:36 51°16.857 2°52.732 17.6458 4.215758 31.984658 -3.020363
2011-07-26 07:02:41 51°16.873 2°52.724 17.6455 4.215965 31.986414 -3.020363
2011-07-26 07:02:46 51°16.889 2°52.716 17.6497 4.21638 31.989299 -3.020363
2011-07-26 07:02:51 51°16.905 2°52.707 17.6501 4.216691 31.991306 -3.020363
2011-07-26 07:02:56 51°16.921 2°52.698 17.6505 4.216691 31.991306 -3.020363
2011-07-26 07:03:01 51°16.936 2°52.691 17.6502 4.217106 31.993564 -3.020363
2011-07-26 07:03:06 51°16.952 2°52.682 17.6492 4.217728 31.998205 -3.020363
2011-07-26 07:03:11 51°16.968 2°52.673 17.6521 4.218453 32.003724 -3.020363
2011-07-26 07:03:16 51°16.984 2°52.664 17.6538 4.218868 32.006609 -3.020363
2011-07-26 07:03:21 51°17 2°52.656 17.6562 4.219386 32.009745 -3.020363
2011-07-26 07:03:26 51°17.016 2°52.649 17.6552 4.220216 32.015514 -3.020363
2011-07-26 07:03:31 51°17.033 2°52.642 17.6566 4.220216 32.015514 -3.020363
2011-07-26 07:03:36 51°17.049 2°52.635 17.6578 4.220942 32.021033 -3.020363
2011-07-26 07:03:41 51°17.065 2°52.63 17.6609 4.221564 32.026301 -3.020363
2011-07-26 07:03:45 51°17.079 2°52.626 17.6624 4.222289 32.031192 -3.020363
2011-07-26 07:03:51 51°17.099 2°52.62 17.6625 4.223015 32.036083 -3.020363
2011-07-26 07:03:56 51°17.115 2°52.616 17.6659 4.223534 32.039218 -3.020363
2011-07-26 07:04:01 51°17.132 2°52.612 17.6669 4.223534 32.039218 -3.020363
2011-07-26 07:04:06 51°17.149 2°52.608 17.669 4.22457 32.04737 -3.020363
2011-07-26 07:04:11 51°17.166 2°52.605 17.6668 4.225296 32.05226 -3.020363
2011-07-26 07:04:16 51°17.183 2°52.601 17.6685 4.226022 32.056522 -3.020363
2011-07-26 07:04:21 51°17.2 2°52.598 17.6693 4.226851 32.06229 -3.020363
2011-07-26 07:04:26 51°17.217 2°52.596 17.67 4.226851 32.06229 -3.020363
2011-07-26 07:04:31 51°17.234 2°52.593 17.6693 4.227577 32.06718 -3.020363
2011-07-26 07:04:36 51°17.251 2°52.589 17.6693 4.228095 32.070313 -3.020363
2011-07-26 07:04:41 51°17.268 2°52.587 17.6706 4.228717 32.074324 -3.020363
2011-07-26 07:04:46 51°17.285 2°52.584 17.6721 4.229547 32.08072 -3.020363
2011-07-26 07:04:51 51°17.302 2°52.581 17.6709 4.230169 32.085359 -3.020363
2011-07-26 07:04:56 51°17.319 2°52.578 17.6707 4.230687 32.08912 -3.020363
2011-07-26 07:05:01 51°17.336 2°52.574 17.6677 4.230687 32.08912 -3.020363
2011-07-26 07:05:06 51°17.353 2°52.571 17.6663 4.231309 32.09376 -3.020363
2011-07-26 07:05:11 51°17.37 2°52.567 17.6672 4.231828 32.097521 -3.020363
2011-07-26 07:05:16 51°17.386 2°52.564 17.6682 4.232346 32.101911 -3.020363
2011-07-26 07:05:21 51°17.403 2°52.56 17.6697 4.232761 32.104794 -3.020363
2011-07-26 07:05:25 51°17.417 2°52.559 17.6659 4.233279 32.108555 -3.020363
2011-07-26 07:05:31 51°17.437 2°52.554 17.6666 4.233279 32.108555 -3.020363
2011-07-26 07:05:36 51°17.454 2°52.552 17.6703 4.233798 32.113574 -3.020363
2011-07-26 07:05:41 51°17.471 2°52.55 17.6659 4.234316 32.118593 -3.020363
2011-07-26 07:05:45 51°17.485 2°52.549 17.6652 4.234731 32.122735 -3.020363
2011-07-26 07:05:51 51°17.505 2°52.547 17.666 4.235042 32.125369 -3.020363
2011-07-26 07:05:56 51°17.523 2°52.546 17.6634 4.235042 32.125369 -3.020363
2011-07-26 07:06:01 51°17.54 2°52.545 17.6614 4.234524 32.121608 -3.020363
2011-07-26 07:06:06 51°17.557 2°52.544 17.6627 4.234316 32.119852 -3.020363
2011-07-26 07:06:11 51°17.574 2°52.544 17.6621 4.234316 32.119222 -3.020363
2011-07-26 07:06:16 51°17.592 2°52.543 17.6605 4.236286 32.136536 -3.020363
2011-07-26 07:06:21 51°17.609 2°52.542 17.6613 4.236701 32.140678 -3.020363
2011-07-26 07:06:26 51°17.626 2°52.541 17.6612 4.236701 32.140678 -3.020363
2011-07-26 07:06:31 51°17.644 2°52.539 17.6593 4.237012 32.143313 -3.020363
2011-07-26 07:06:36 51°17.661 2°52.538 17.6567 4.23753 32.148964 -3.020363
2011-07-26 07:06:41 51°17.678 2°52.537 17.6575 4.237945 32.153107 -3.020363
2011-07-26 07:06:46 51°17.696 2°52.537 17.6583 4.23836 32.15725 -3.020363
2011-07-26 07:06:51 51°17.713 2°52.537 17.6564 4.238671 32.161145 -3.020363
2011-07-26 07:06:56 51°17.73 2°52.538 17.6571 4.239189 32.165537 -3.020363
2011-07-26 07:07:01 51°17.747 2°52.539 17.6591 4.239189 32.165537 -3.020363
2011-07-26 07:07:06 51°17.765 2°52.541 17.656 4.239708 32.170559 -3.020363
2011-07-26 07:07:11 51°17.782 2°52.543 17.6521 4.240226 32.175582 -3.020363
2011-07-26 07:07:16 51°17.799 2°52.545 17.6516 4.240537 32.178848 -3.020363
2011-07-26 07:07:21 51°17.817 2°52.546 17.6508 4.241056 32.18324 -3.020363
2011-07-26 07:07:26 51°17.834 2°52.548 17.6501 4.241367 32.185876 -3.020363
2011-07-26 07:07:31 51°17.852 2°52.548 17.6499 4.241367 32.185876 -3.020363
2011-07-26 07:07:36 51°17.869 2°52.548 17.6493 4.241885 32.190268 -3.020363
2011-07-26 07:07:41 51°17.887 2°52.548 17.6507 4.2423 32.195044 -3.020363
2011-07-26 07:07:45 51°17.901 2°52.548 17.6497 4.243026 32.202456 -3.020363
2011-07-26 07:07:51 51°17.922 2°52.548 17.6521 4.243544 32.208743 -3.020363
2011-07-26 07:07:56 51°17.938 2°52.546 17.6512 4.243544 32.208743 -3.020363
2011-07-26 07:08:01 51°17.955 2°52.546 17.652 4.243855 32.212011 -3.020363
2011-07-26 07:08:06 51°17.973 2°52.544 17.6544 4.244166 32.215278 -3.020363
2011-07-26 07:08:11 51°17.99 2°52.544 17.6532 4.244581 32.220056 -3.020363
2011-07-26 07:08:16 51°18.007 2°52.544 17.6517 4.244788 32.221814 -3.020363
2011-07-26 07:08:21 51°18.024 2°52.543 17.6532 4.245203 32.225329 -3.020363
2011-07-26 07:08:25 51°18.037 2°52.544 17.655 4.245203 32.225329 -3.020363
2011-07-26 07:08:31 51°18.057 2°52.545 17.6543 4.245411 32.226455 -3.020363
2011-07-26 07:08:36 51°18.075 2°52.546 17.6528 4.245825 32.229971 -3.020363
2011-07-26 07:08:41 51°18.092 2°52.548 17.6534 4.24624 32.232855 -3.020363
2011-07-26 07:08:45 51°18.105 2°52.55 17.6523 4.246758 32.236617 -3.020363
2011-07-26 07:08:51 51°18.126 2°52.552 17.6535 4.247484 32.242769 -3.020363
2011-07-26 07:08:56 51°18.143 2°52.553 17.6518 4.247899 32.245653 -3.020363
2011-07-26 07:09:01 51°18.16 2°52.555 17.6538 4.247899 32.245653 -3.020363
2011-07-26 07:09:05 51°18.173 2°52.556 17.6557 4.24821 32.24829 -3.020363
2011-07-26 07:09:11 51°18.194 2°52.558 17.6555 4.249039 32.255321 -3.020363
2011-07-26 07:09:16 51°18.211 2°52.559 17.6533 4.249558 32.259716 -3.020363
2011-07-26 07:09:21 51°18.228 2°52.561 17.6537 4.250491 32.267626 -3.020363
2011-07-26 07:09:25 51°18.242 2°52.561 17.6567 4.250491 32.267626 -3.020363
2011-07-26 07:09:31 51°18.262 2°52.563 17.6575 4.251113 32.273533 -3.020363
2011-07-26 07:09:36 51°18.279 2°52.563 17.6555 4.251632 32.277928 -3.020363
2011-07-26 07:09:41 51°18.296 2°52.565 17.6556 4.252046 32.280812 -3.020363
2011-07-26 07:09:45 51°18.31 2°52.565 17.6541 4.252565 32.285207 -3.020363
2011-07-26 07:09:51 51°18.331 2°52.567 17.652 4.253187 32.290481 -3.020363
2011-07-26 07:09:56 51°18.348 2°52.568 17.6535 4.253187 32.290481 -3.020363
2011-07-26 07:10:01 51°18.365 2°52.57 17.6548 4.253809 32.295756 -3.020363
2011-07-26 07:10:06 51°18.382 2°52.571 17.6559 4.254224 32.298639 -3.020363
2011-07-26 07:10:11 51°18.399 2°52.572 17.6542 4.254846 32.303914 -3.020363
2011-07-26 07:10:16 51°18.417 2°52.573 17.6525 4.255468 32.309189 -3.020363
2011-07-26 07:10:21 51°18.434 2°52.573 17.6529 4.25609 32.314464 -3.020363
2011-07-26 07:10:26 51°18.451 2°52.573 17.6521 4.256712 32.320372 -3.020363
2011-07-26 07:10:31 51°18.468 2°52.572 17.6534 4.256712 32.320372 -3.020363
2011-07-26 07:10:36 51°18.485 2°52.572 17.6538 4.257127 32.323889 -3.020363
2011-07-26 07:10:41 51°18.502 2°52.571 17.6538 4.257645 32.328285 -3.020363
2011-07-26 07:10:46 51°18.519 2°52.571 17.6548 4.258371 32.33444 -3.020363
2011-07-26 07:10:51 51°18.537 2°52.571 17.6534 4.259097 32.340595 -3.020363
2011-07-26 07:10:56 51°18.554 2°52.57 17.6534 4.259823 32.347384 -3.020363
2011-07-26 07:11:01 51°18.571 2°52.569 17.6524 4.259823 32.347384 -3.020363
2011-07-26 07:11:06 51°18.588 2°52.568 17.6539 4.260445 32.35266 -3.020363
2011-07-26 07:11:11 51°18.605 2°52.567 17.6526 4.261171 32.358815 -3.020363
2011-07-26 07:11:16 51°18.622 2°52.567 17.6548 4.261689 32.362578 -3.020363
2011-07-26 07:11:21 51°18.639 2°52.567 17.6546 4.262311 32.367854 -3.020363
2011-07-26 07:11:25 51°18.652 2°52.567 17.6532 4.262311 32.367854 -3.020363
2011-07-26 07:11:31 51°18.672 2°52.567 17.6513 4.263037 32.37401 -3.020363
2011-07-26 07:11:36 51°18.689 2°52.568 17.6494 4.263763 32.380166 -3.020363
2011-07-26 07:11:41 51°18.706 2°52.568 17.6512 4.264489 32.386323 -3.020363
2011-07-26 07:11:45 51°18.719 2°52.568 17.6511 4.265111 32.3916 -3.020363
2011-07-26 07:11:51 51°18.74 2°52.569 17.6476 4.265629 32.395997 -3.020363
2011-07-26 07:11:56 51°18.757 2°52.57 17.6463 4.266148 32.400395 -3.020363
2011-07-26 07:12:01 51°18.774 2°52.571 17.6474 4.266148 32.400395 -3.020363
2011-07-26 07:12:05 51°18.787 2°52.572 17.6445 4.266666 32.405428 -3.020363
2011-07-26 07:12:11 51°18.808 2°52.573 17.6439 4.267081 32.409581 -3.020363
2011-07-26 07:12:16 51°18.825 2°52.574 17.6417 4.267392 32.412855 -3.020363
2011-07-26 07:12:21 51°18.843 2°52.576 17.6433 4.267703 32.41613 -3.020363
2011-07-26 07:12:26 51°18.86 2°52.578 17.6413 4.268118 32.420919 -3.020363
2011-07-26 07:12:31 51°18.878 2°52.579 17.6436 4.268118 32.420919 -3.020363
2011-07-26 07:12:36 51°18.895 2°52.581 17.6432 4.268222 32.422435 -3.020363
2011-07-26 07:12:41 51°18.912 2°52.582 17.6419 4.268325 32.42395 -3.020363
2011-07-26 07:12:45 51°18.926 2°52.584 17.639 4.268533 32.426981 -3.020363
2011-07-26 07:12:51 51°18.947 2°52.584 17.6362 4.268637 32.428496 -3.020363
2011-07-26 07:12:56 51°18.964 2°52.585 17.635 4.268637 32.428496 -3.020363
2011-07-26 07:13:01 51°18.981 2°52.585 17.6342 4.268637 32.429768 -3.020363
2011-07-26 07:13:06 51°18.999 2°52.586 17.6359 4.268844 32.432163 -3.020363
2011-07-26 07:13:11 51°19.016 2°52.586 17.6423 4.26874 32.430648 -3.020363
2011-07-26 07:13:16 51°19.033 2°52.586 17.6524 4.269155 32.43226 -3.020363
2011-07-26 07:13:21 51°19.051 2°52.586 17.666 4.268844 32.427713 -3.020363
2011-07-26 07:13:25 51°19.064 2°52.586 17.6667 4.268844 32.427713 -3.020363
2011-07-26 07:13:31 51°19.085 2°52.585 17.6676 4.270503 32.44179 -3.020363
2011-07-26 07:13:36 51°19.102 2°52.584 17.6666 4.271643 32.453377 -3.020363
2011-07-26 07:13:41 51°19.119 2°52.583 17.6644 4.271332 32.451373 -3.020363
2011-07-26 07:13:45 51°19.133 2°52.583 17.6729 4.271125 32.448977 -3.020363
2011-07-26 07:13:51 51°19.154 2°52.582 17.6703 4.271021 32.443645 -3.020363
2011-07-26 07:13:56 51°19.171 2°52.581 17.6768 4.270606 32.434405 -3.020363
2011-07-26 07:14:01 51°19.188 2°52.58 17.6686 4.270606 32.434405 -3.020363
2011-07-26 07:14:05 51°19.202 2°52.58 17.6715 4.269984 32.42595 -3.020363
2011-07-26 07:14:11 51°19.223 2°52.579 17.6676 4.270088 32.423653 -3.020363
2011-07-26 07:14:16 51°19.24 2°52.579 17.6685 4.270814 32.427903 -3.020363
2011-07-26 07:14:21 51°19.257 2°52.579 17.666 4.271747 32.433276 -3.020363
2011-07-26 07:14:25 51°19.271 2°52.58 17.6649 4.272369 32.436646 -3.020363
2011-07-26 07:14:31 51°19.291 2°52.58 17.6568 4.272369 32.436646 -3.020363
2011-07-26 07:14:36 51°19.308 2°52.581 17.6595 4.271539 32.428977 -3.020363
2011-07-26 07:14:41 51°19.326 2°52.582 17.6708 4.272162 32.433617 -3.020363
2011-07-26 07:14:46 51°19.343 2°52.583 17.6586 4.27185 32.430979 -3.020363
2011-07-26 07:14:51 51°19.36 2°52.584 17.6638 4.272369 32.436011 -3.020363
2011-07-26 07:14:56 51°19.376 2°52.586 17.6631 4.272369 32.436011 -3.020363
2011-07-26 07:15:01 51°19.393 2°52.587 17.6723 4.272784 32.440163 -3.020363
2011-07-26 07:15:05 51°19.407 2°52.587 17.6673 4.273198 32.444952 -3.020363
2011-07-26 07:15:11 51°19.427 2°52.589 17.6673 4.272887 32.444856 -3.020363
2011-07-26 07:15:16 51°19.443 2°52.59 17.6628 4.272473 32.441338 -3.020363
2011-07-26 07:15:21 51°19.46 2°52.59 17.6584 4.269569 32.416081 -3.020363
2011-07-26 07:15:25 51°19.474 2°52.591 17.6631 4.269569 32.416081 -3.020363
2011-07-26 07:15:31 51°19.494 2°52.592 17.6682 4.262207 32.354294 -3.020363
2011-07-26 07:15:36 51°19.511 2°52.592 17.6659 4.261378 32.347262 -3.020363
2011-07-26 07:15:41 51°19.528 2°52.592 17.6575 4.261585 32.34902 -3.020363
2011-07-26 07:15:45 51°19.541 2°52.593 17.6628 4.260341 32.337838 -3.020363
2011-07-26 07:15:51 51°19.561 2°52.593 17.6518 4.26003 32.335201 -3.020363
2011-07-26 07:15:56 51°19.578 2°52.593 17.6512 4.260341 32.338472 -3.020363
2011-07-26 07:16:01 51°19.595 2°52.593 17.6517 4.260341 32.338472 -3.020363
2011-07-26 07:16:05 51°19.609 2°52.592 17.6514 4.259823 32.334077 -3.020363
2011-07-26 07:16:11 51°19.63 2°52.591 17.6587 4.258889 32.325533 -3.020363
2011-07-26 07:16:16 51°19.647 2°52.59 17.6625 4.258371 32.321772 -3.020363
2011-07-26 07:16:21 51°19.664 2°52.589 17.6493 4.257749 32.319031 -3.020363
2011-07-26 07:16:25 51°19.678 2°52.588 17.6564 4.256816 32.313652 -3.020363
2011-07-26 07:16:31 51°19.698 2°52.587 17.6507 4.256816 32.313652 -3.020363
2011-07-26 07:16:36 51°19.716 2°52.586 17.6479 4.256297 32.310523 -3.020363
2011-07-26 07:16:41 51°19.733 2°52.585 17.6526 4.255883 32.30764 -3.020363
2011-07-26 07:16:45 51°19.746 2°52.585 17.6528 4.254535 32.295581 -3.020363
2011-07-26 07:16:51 51°19.767 2°52.584 17.652 4.253913 32.290307 -3.020363
2011-07-26 07:16:56 51°19.784 2°52.584 17.6503 4.253913 32.290307 -3.020363
2011-07-26 07:17:01 51°19.801 2°52.583 17.64 4.252772 32.281904 -3.020363
2011-07-26 07:17:06 51°19.818 2°52.583 17.6356 4.25215 32.277263 -3.020363
2011-07-26 07:17:11 51°19.835 2°52.583 17.6314 4.25132 32.271496 -3.020363
2011-07-26 07:17:16 51°19.852 2°52.584 17.6277 4.251217 32.27125 -3.020363
2011-07-26 07:17:21 51°19.869 2°52.584 17.6256 4.250595 32.267241 -3.020363
2011-07-26 07:17:25 51°19.883 2°52.585 17.6244 4.250595 32.267241 -3.020363
2011-07-26 07:17:31 51°19.903 2°52.586 17.6199 4.249558 32.259084 -3.020363
2011-07-26 07:17:36 51°19.92 2°52.587 17.6199 4.248936 32.254442 -3.020363
2011-07-26 07:17:41 51°19.937 2°52.587 17.622 4.247899 32.248813 -3.020363
2011-07-26 07:17:45 51°19.951 2°52.588 17.615 4.247484 32.247193 -3.020363
2011-07-26 07:17:51 51°19.97 2°52.589 17.6136 4.246447 32.242195 -3.020363
2011-07-26 07:17:56 51°19.987 2°52.59 17.618 4.245514 32.235547 -3.020363
2011-07-26 07:18:01 51°20.004 2°52.591 17.6187 4.245514 32.235547 -3.020363
2011-07-26 07:18:05 51°20.018 2°52.591 17.6129 4.2451 32.233927 -3.020363
2011-07-26 07:18:11 51°20.038 2°52.592 17.6132 4.244167 32.22791 -3.020363
2011-07-26 07:18:16 51°20.055 2°52.592 17.6145 4.244167 32.230438 -3.020363
2011-07-26 07:18:21 51°20.072 2°52.592 17.6099 4.243648 32.22857 -3.020363
2011-07-26 07:18:25 51°20.086 2°52.592 17.6139 4.243648 32.22857 -3.020363
2011-07-26 07:18:31 51°20.107 2°52.592 17.6111 4.24313 32.225437 -3.020363
2011-07-26 07:18:36 51°20.124 2°52.592 17.6055 4.243441 32.228075 -3.020363
2011-07-26 07:18:41 51°20.141 2°52.591 17.6082 4.242611 32.222937 -3.020363
2011-07-26 07:18:45 51°20.155 2°52.59 17.6041 4.2423 32.221563 -3.020363
2011-07-26 07:18:51 51°20.176 2°52.589 17.5999 4.242093 32.220436 -3.020363
2011-07-26 07:18:56 51°20.193 2°52.587 17.5953 4.242093 32.220436 -3.020363
2011-07-26 07:19:01 51°20.211 2°52.586 17.5895 4.242197 32.221947 -3.020363
2011-07-26 07:19:05 51°20.224 2°52.584 17.5893 4.2423 32.223459 -3.020363
2011-07-26 07:19:11 51°20.245 2°52.583 17.5862 4.242508 32.226482 -3.020363
2011-07-26 07:19:16 51°20.262 2°52.581 17.5801 4.241989 32.223981 -3.020363
2011-07-26 07:19:21 51°20.279 2°52.58 17.5747 4.241782 32.224118 -3.020363
2011-07-26 07:19:25 51°20.293 2°52.579 17.5746 4.242404 32.231292 -3.020363
2011-07-26 07:19:31 51°20.313 2°52.578 17.5732 4.242404 32.231292 -3.020363
2011-07-26 07:19:36 51°20.33 2°52.577 17.5788 4.242612 32.236214 -3.020363
2011-07-26 07:19:41 51°20.348 2°52.576 17.5707 4.242715 32.240257 -3.020363
2011-07-26 07:19:45 51°20.361 2°52.576 17.5704 4.243234 32.247187 -3.020363
2011-07-26 07:19:51 51°20.382 2°52.575 17.5703 4.243234 32.250985 -3.020363
2011-07-26 07:19:56 51°20.4 2°52.574 17.5602 4.243441 32.255277 -3.020363
2011-07-26 07:20:01 51°20.417 2°52.574 17.5585 4.243441 32.255277 -3.020363
2011-07-26 07:20:05 51°20.431 2°52.573 17.5623 4.24313 32.25517 -3.020363
2011-07-26 07:20:11 51°20.452 2°52.573 17.5562 4.24313 32.25707 -3.020363
2011-07-26 07:20:16 51°20.469 2°52.573 17.5562 4.243545 32.261857 -3.020363
2011-07-26 07:20:21 51°20.486 2°52.574 17.5596 4.243649 32.263371 -3.020363
2011-07-26 07:20:25 51°20.499 2°52.574 17.5608 4.243649 32.263371 -3.020363
2011-07-26 07:20:31 51°20.52 2°52.576 17.5628 4.243856 32.266399 -3.020363
2011-07-26 07:20:36 51°20.536 2°52.577 17.5614 4.244271 32.273722 -3.020363
2011-07-26 07:20:41 51°20.553 2°52.577 17.5621 4.244375 32.276504 -3.020363
2011-07-26 07:20:46 51°20.569 2°52.578 17.5624 4.244789 32.282562 -3.020363
2011-07-26 07:20:51 51°20.586 2°52.579 17.5596 4.245101 32.285838 -3.020363
2011-07-26 07:20:56 51°20.603 2°52.58 17.5586 4.245101 32.285838 -3.020363
2011-07-26 07:21:01 51°20.62 2°52.581 17.5511 4.245412 32.289114 -3.020363
2011-07-26 07:21:06 51°20.637 2°52.581 17.5517 4.246241 32.296159 -3.020363
2011-07-26 07:21:11 51°20.654 2°52.582 17.5503 4.247485 32.306727 -3.020363
2011-07-26 07:21:16 51°20.671 2°52.583 17.5535 4.24396 32.276786 -3.020363
2011-07-26 07:21:21 51°20.688 2°52.583 17.5608 4.245412 32.289749 -3.020363
2011-07-26 07:21:26 51°20.705 2°52.584 17.5549 4.238776 32.23403 -3.020363
2011-07-26 07:21:31 51°20.723 2°52.583 17.5583 4.238776 32.23403 -3.020363
2011-07-26 07:21:36 51°20.74 2°52.583 17.5626 4.236391 32.214415 -3.020363
2011-07-26 07:21:41 51°20.757 2°52.583 17.5679 4.239813 32.245368 -3.020363
2011-07-26 07:21:46 51°20.775 2°52.582 17.568 4.25464 32.373226 -3.020363
2011-07-26 07:21:51 51°20.791 2°52.581 17.5644 4.257128 32.395009 -3.020363
2011-07-26 07:21:56 51°20.808 2°52.58 17.5615 4.258787 32.408472 -3.020363
2011-07-26 07:22:01 51°20.825 2°52.579 17.5591 4.258787 32.408472 -3.020363
2011-07-26 07:22:06 51°20.842 2°52.578 17.5719 4.260446 32.421935 -3.020363
2011-07-26 07:22:11 51°20.859 2°52.577 17.5655 4.262313 32.435887 -3.020363
2011-07-26 07:22:16 51°20.876 2°52.576 17.5597 4.264283 32.450082 -3.020363
2011-07-26 07:22:21 51°20.893 2°52.575 17.5603 4.265734 32.461145 -3.020363
2011-07-26 07:22:25 51°20.907 2°52.574 17.5626 4.265734 32.461145 -3.020363
2011-07-26 07:22:31 51°20.927 2°52.574 17.5638 4.26646 32.46859 -3.020363
2011-07-26 07:22:36 51°20.944 2°52.574 17.5659 4.266771 32.473786 -3.020363
2011-07-26 07:22:41 51°20.962 2°52.575 17.5646 4.266979 32.475549 -3.020363
2011-07-26 07:22:45 51°20.975 2°52.575 17.5636 4.267082 32.475792 -3.020363
2011-07-26 07:22:51 51°20.995 2°52.576 17.564 4.266979 32.476825 -3.020363
2011-07-26 07:22:56 51°21.012 2°52.577 17.5612 4.267186 32.479864 -3.020363
2011-07-26 07:23:01 51°21.029 2°52.578 17.5656 4.267186 32.479864 -3.020363
2011-07-26 07:23:05 51°21.042 2°52.578 17.5675 4.267186 32.479864 -3.020363
2011-07-26 07:23:11 51°21.063 2°52.58 17.5688 4.267186 32.479864 -3.020363
2011-07-26 07:23:16 51°21.079 2°52.581 17.5646 4.267497 32.481871 -3.020363
2011-07-26 07:23:21 51°21.096 2°52.581 17.571 4.267393 32.480989 -3.020363
2011-07-26 07:23:25 51°21.11 2°52.582 17.5674 4.267393 32.480989 -3.020363
2011-07-26 07:23:31 51°21.13 2°52.583 17.5751 4.267393 32.480989 -3.020363
2011-07-26 07:23:36 51°21.147 2°52.583 17.5724 4.26729 32.480107 -3.020363
2011-07-26 07:23:41 51°21.164 2°52.583 17.5693 4.267497 32.481871 -3.020363
2011-07-26 07:23:45 51°21.177 2°52.583 17.5709 4.267497 32.481232 -3.020363
2011-07-26 07:23:51 51°21.198 2°52.584 17.5706 4.26729 32.478831 -3.020363
2011-07-26 07:23:56 51°21.215 2°52.584 17.571 4.26729 32.478831 -3.020363
2011-07-26 07:24:01 51°21.232 2°52.583 17.5664 4.267393 32.478436 -3.020363
2011-07-26 07:24:05 51°21.246 2°52.582 17.57 4.26729 32.476917 -3.020363
2011-07-26 07:24:11 51°21.266 2°52.581 17.5668 4.267186 32.474759 -3.020363
2011-07-26 07:24:16 51°21.283 2°52.579 17.5739 4.267082 32.474516 -3.020363
2011-07-26 07:24:21 51°21.3 2°52.578 17.567 4.266667 32.47099 -3.020363
2011-07-26 07:24:25 51°21.313 2°52.577 17.5803 4.266667 32.47099 -3.020363
2011-07-26 07:24:31 51°21.334 2°52.575 17.564 4.266253 32.467465 -3.020363
2011-07-26 07:24:36 51°21.351 2°52.574 17.5796 4.265942 32.464821 -3.020363
2011-07-26 07:24:41 51°21.369 2°52.574 17.5844 4.265631 32.462176 -3.020363
2011-07-26 07:24:45 51°21.382 2°52.573 17.5634 4.265319 32.459532 -3.020363
2011-07-26 07:24:51 51°21.403 2°52.572 17.5685 4.265008 32.456251 -3.020363
2011-07-26 07:24:56 51°21.42 2°52.571 17.5602 4.264594 32.453363 -3.020363
2011-07-26 07:25:01 51°21.438 2°52.571 17.5669 4.264594 32.453363 -3.020363
2011-07-26 07:25:05 51°21.452 2°52.57 17.564 4.26449 32.452482 -3.020363
2011-07-26 07:25:11 51°21.473 2°52.57 17.5696 4.263868 32.447194 -3.020363
2011-07-26 07:25:16 51°21.49 2°52.569 17.562 4.263764 32.445038 -3.020363
2011-07-26 07:25:21 51°21.508 2°52.569 17.5779 4.263764 32.44695 -3.020363
2011-07-26 07:25:25 51°21.522 2°52.569 17.5617 4.263453 32.444944 -3.020363
2011-07-26 07:25:31 51°21.542 2°52.569 17.576 4.263453 32.444944 -3.020363
2011-07-26 07:25:36 51°21.56 2°52.57 17.5692 4.263246 32.445093 -3.020363
2011-07-26 07:25:41 51°21.577 2°52.571 17.5852 4.263038 32.443968 -3.020363
2011-07-26 07:25:45 51°21.591 2°52.571 17.577 4.263038 32.443331 -3.020363
2011-07-26 07:25:51 51°21.612 2°52.572 17.5751 4.263038 32.443331 -3.020363
2011-07-26 07:25:56 51°21.629 2°52.574 17.5642 4.263038 32.443331 -3.020363
2011-07-26 07:26:01 51°21.646 2°52.575 17.5688 4.263142 32.442937 -3.020363
2011-07-26 07:26:05 51°21.66 2°52.575 17.572 4.263349 32.444062 -3.020363
2011-07-26 07:26:11 51°21.681 2°52.577 17.5684 4.263453 32.443669 -3.020363
2011-07-26 07:26:16 51°21.698 2°52.577 17.5642 4.263557 32.442638 -3.020363
2011-07-26 07:26:21 51°21.715 2°52.578 17.5729 4.263557 32.440726 -3.020363
2011-07-26 07:26:26 51°21.733 2°52.578 17.5716 4.264179 32.447288 -3.020363
2011-07-26 07:26:31 51°21.75 2°52.578 17.5764 4.264179 32.447288 -3.020363
2011-07-26 07:26:36 51°21.767 2°52.578 17.5681 4.264179 32.448563 -3.020363
2011-07-26 07:26:41 51°21.785 2°52.578 17.5705 4.264283 32.450719 -3.020363
2011-07-26 07:26:45 51°21.798 2°52.578 17.5686 4.264594 32.454001 -3.020363
2011-07-26 07:26:51 51°21.819 2°52.578 17.5717 4.265008 32.457526 -3.020363
2011-07-26 07:26:56 51°21.836 2°52.577 17.573 4.265319 32.459532 -3.020363
2011-07-26 07:27:01 51°21.853 2°52.577 17.5724 4.265319 32.459532 -3.020363
2011-07-26 07:27:05 51°21.867 2°52.577 17.5738 4.265631 32.460901 -3.020363
2011-07-26 07:27:11 51°21.887 2°52.576 17.5707 4.266149 32.465308 -3.020363
2011-07-26 07:27:16 51°21.905 2°52.575 17.5637 4.266356 32.467708 -3.020363
2011-07-26 07:27:21 51°21.922 2°52.574 17.5625 4.266667 32.47099 -3.020363
2011-07-26 07:27:25 51°21.936 2°52.573 17.5651 4.266667 32.47099 -3.020363
2011-07-26 07:27:31 51°21.957 2°52.572 17.5685 4.266979 32.473634 -3.020363
2011-07-26 07:27:36 51°21.975 2°52.571 17.5663 4.267082 32.473878 -3.020363
2011-07-26 07:27:41 51°21.992 2°52.569 17.5766 4.267497 32.478042 -3.020363
2011-07-26 07:27:45 51°22.006 2°52.568 17.5817 4.267601 32.479561 -3.020363
2011-07-26 07:27:51 51°22.026 2°52.567 17.5661 4.267808 32.483239 -3.020363
2011-07-26 07:27:56 51°22.043 2°52.566 17.5699 4.267808 32.483239 -3.020363
2011-07-26 07:28:01 51°22.061 2°52.565 17.5697 4.26843 32.489166 -3.020363
2011-07-26 07:28:05 51°22.075 2°52.566 17.5701 4.268741 32.491811 -3.020363
2011-07-26 07:28:11 51°22.095 2°52.566 17.5655 4.26926 32.49558 -3.020363
2011-07-26 07:28:16 51°22.113 2°52.567 17.5854 4.269674 32.497191 -3.020363
2011-07-26 07:28:21 51°22.13 2°52.568 17.5794 4.2704 32.500807 -3.020363
2011-07-26 07:28:25 51°22.144 2°52.569 17.5723 4.270919 32.506492 -3.020363
2011-07-26 07:28:31 51°22.164 2°52.57 17.5749 4.270919 32.506492 -3.020363
2011-07-26 07:28:36 51°22.181 2°52.57 17.5739 4.271645 32.512663 -3.020363
2011-07-26 07:28:41 51°22.199 2°52.571 17.5725 4.272059 32.51555 -3.020363
2011-07-26 07:28:45 51°22.213 2°52.572 17.5637 4.272059 32.516189 -3.020363
2011-07-26 07:28:51 51°22.233 2°52.573 17.5697 4.272785 32.520443 -3.020363
2011-07-26 07:28:56 51°22.251 2°52.574 17.5664 4.2732 32.523331 -3.020363
2011-07-26 07:29:01 51°22.269 2°52.575 17.5756 4.2732 32.523331 -3.020363
2011-07-26 07:29:05 51°22.282 2°52.575 17.5672 4.273407 32.525094 -3.020363
2011-07-26 07:29:11 51°22.303 2°52.575 17.5749 4.273926 32.528862 -3.020363
2011-07-26 07:29:16 51°22.32 2°52.575 17.5813 4.274133 32.532543 -3.020363
2011-07-26 07:29:21 51°22.336 2°52.574 17.5798 4.274548 32.537987 -3.020363
2011-07-26 07:29:25 51°22.349 2°52.574 17.5806 4.274548 32.537987 -3.020363
2011-07-26 07:29:31 51°22.37 2°52.573 17.5846 4.275066 32.543035 -3.020363
2011-07-26 07:29:36 51°22.387 2°52.572 17.5858 4.275792 32.549207 -3.020363
2011-07-26 07:29:41 51°22.404 2°52.571 17.5886 4.276311 32.552337 -3.020363
2011-07-26 07:29:45 51°22.418 2°52.571 17.5986 4.276725 32.553305 -3.020363
2011-07-26 07:29:50 51°22.435 2°52.571 17.593 4.277659 32.558682 -3.020363
2011-07-26 07:29:56 51°22.456 2°52.57 17.5947 4.279732 32.575675 -3.020363
2011-07-26 07:30:01 51°22.473 2°52.57 17.6056 4.279732 32.575675 -3.020363
2011-07-26 07:30:05 51°22.487 2°52.57 17.6009 4.28191 32.592911 -3.020363
2011-07-26 07:30:09 51°22.501 2°52.57 17.607 4.284191 32.610388 -3.020363
2011-07-26 07:30:15 51°22.522 2°52.57 17.6181 4.286887 32.631393 -3.020363
2011-07-26 07:30:21 51°22.543 2°52.57 17.627 4.289479 32.650874 -3.020363
2011-07-26 07:30:25 51°22.557 2°52.57 17.6236 4.291346 32.664823 -3.020363
2011-07-26 07:30:31 51°22.577 2°52.57 17.6214 4.291346 32.664823 -3.020363
2011-07-26 07:30:36 51°22.595 2°52.571 17.6217 4.293938 32.683661 -3.020363
2011-07-26 07:30:41 51°22.612 2°52.571 17.6168 4.296634 32.703379 -3.020363
2011-07-26 07:30:45 51°22.626 2°52.571 17.6266 4.299538 32.725503 -3.020363
2011-07-26 07:30:51 51°22.646 2°52.571 17.6304 4.301922 32.741288 -3.020363
2011-07-26 07:30:56 51°22.664 2°52.571 17.6237 4.304722 32.760598 -3.020363
2011-07-26 07:31:01 51°22.681 2°52.57 17.6249 4.304722 32.760598 -3.020363
2011-07-26 07:31:05 51°22.695 2°52.569 17.6305 4.30607 32.770775 -3.020363
2011-07-26 07:31:11 51°22.716 2°52.568 17.6317 4.308352 32.78889 -3.020363
2011-07-26 07:31:16 51°22.734 2°52.568 17.6323 4.310529 32.806766 -3.020363
2011-07-26 07:31:21 51°22.751 2°52.567 17.6356 4.312914 32.824476 -3.020363
2011-07-26 07:31:25 51°22.765 2°52.566 17.6435 4.312914 32.824476 -3.020363
2011-07-26 07:31:31 51°22.786 2°52.565 17.6409 4.314988 32.840182 -3.020363
2011-07-26 07:31:36 51°22.804 2°52.565 17.648 4.316751 32.854532 -3.020363
2011-07-26 07:31:41 51°22.821 2°52.566 17.647 4.317788 32.861418 -3.020363
2011-07-26 07:31:45 51°22.835 2°52.566 17.6392 4.319136 32.87095 -3.020363
2011-07-26 07:31:50 51°22.853 2°52.568 17.6442 4.320381 32.880244 -3.020363
2011-07-26 07:31:56 51°22.874 2°52.569 17.6524 4.32204 32.893066 -3.020363
2011-07-26 07:32:01 51°22.891 2°52.571 17.6433 4.32204 32.893066 -3.020363
2011-07-26 07:32:05 51°22.905 2°52.571 17.6458 4.323388 32.902597 -3.020363
2011-07-26 07:32:10 51°22.922 2°52.573 17.6476 4.324425 32.908835 -3.020363
2011-07-26 07:32:16 51°22.944 2°52.574 17.6419 4.325254 32.915246 -3.020363
2011-07-26 07:32:21 51°22.961 2°52.575 17.6499 4.327328 32.931595 -3.020363
2011-07-26 07:32:25 51°22.975 2°52.576 17.6497 4.327951 32.935595 -3.020363
2011-07-26 07:32:30 51°22.992 2°52.577 17.6505 4.327951 32.935595 -3.020363
2011-07-26 07:32:36 51°23.012 2°52.579 17.6489 4.328573 32.940888 -3.020363
2011-07-26 07:32:41 51°23.029 2°52.58 17.658 4.32961 32.949709 -3.020363
2011-07-26 07:32:45 51°23.042 2°52.581 17.6497 4.330543 32.957001 -3.020363
2011-07-26 07:32:50 51°23.059 2°52.583 17.6442 4.330854 32.959648 -3.020363
2011-07-26 07:32:56 51°23.08 2°52.584 17.6457 4.330854 32.959648 -3.020363
2011-07-26 07:33:01 51°23.097 2°52.586 17.6413 4.330958 32.958591 -3.020363
2011-07-26 07:33:05 51°23.111 2°52.587 17.6461 4.331788 32.965001 -3.020363
2011-07-26 07:33:11 51°23.132 2°52.587 17.6525 4.332202 32.96659 -3.020363
2011-07-26 07:33:15 51°23.146 2°52.588 17.6508 4.332721 32.969707 -3.020363
2011-07-26 07:33:21 51°23.167 2°52.588 17.6519 4.333447 32.976528 -3.020363
2011-07-26 07:33:25 51°23.18 2°52.588 17.6491 4.333447 32.976528 -3.020363
2011-07-26 07:33:31 51°23.201 2°52.587 17.6512 4.333758 32.980468 -3.020363
2011-07-26 07:33:36 51°23.218 2°52.586 17.6513 4.335106 32.99323 -3.020363
2011-07-26 07:33:41 51°23.235 2°52.585 17.6441 4.335832 32.999406 -3.020363
2011-07-26 07:33:45 51°23.249 2°52.585 17.6591 4.335832 32.998111 -3.020363
2011-07-26 07:33:51 51°23.27 2°52.584 17.651 4.336558 33.002992 -3.020363
2011-07-26 07:33:56 51°23.287 2°52.583 17.6486 4.33718 33.008286 -3.020363
2011-07-26 07:34:01 51°23.304 2°52.582 17.654 4.33718 33.008286 -3.020363
2011-07-26 07:34:05 51°23.318 2°52.582 17.655 4.337802 33.013579 -3.020363
2011-07-26 07:34:10 51°23.335 2°52.581 17.6513 4.338113 33.016226 -3.020363
2011-07-26 07:34:16 51°23.356 2°52.581 17.6554 4.338736 33.020872 -3.020363
2011-07-26 07:34:21 51°23.374 2°52.581 17.6585 4.338736 33.018929 -3.020363
2011-07-26 07:34:25 51°23.388 2°52.581 17.6557 4.33915 33.022458 -3.020363
2011-07-26 07:34:30 51°23.405 2°52.582 17.6645 4.33915 33.022458 -3.020363
2011-07-26 07:34:36 51°23.426 2°52.581 17.657 4.340187 33.031281 -3.020363
2011-07-26 07:34:41 51°23.444 2°52.581 17.6628 4.340913 33.036809 -3.020363
2011-07-26 07:34:45 51°23.457 2°52.581 17.6601 4.341536 33.041455 -3.020363
2011-07-26 07:34:50 51°23.475 2°52.58 17.6561 4.342365 33.048513 -3.020363
2011-07-26 07:34:55 51°23.492 2°52.58 17.6691 4.342365 33.048513 -3.020363
2011-07-26 07:35:01 51°23.513 2°52.58 17.6713 4.342987 33.053159 -3.020363
2011-07-26 07:35:05 51°23.527 2°52.58 17.6689 4.343506 33.056274 -3.020363
2011-07-26 07:35:10 51°23.545 2°52.58 17.6692 4.344024 33.060037 -3.020363
2011-07-26 07:35:16 51°23.565 2°52.58 17.6661 4.344336 33.061388 -3.020363
2011-07-26 07:35:21 51°23.582 2°52.581 17.6722 4.345684 33.072858 -3.020363
2011-07-26 07:35:25 51°23.596 2°52.581 17.6635 4.346721 33.080384 -3.020363
2011-07-26 07:35:31 51°23.616 2°52.583 17.6656 4.346721 33.080384 -3.020363
2011-07-26 07:35:36 51°23.633 2°52.584 17.6779 4.347239 33.082201 -3.020363
2011-07-26 07:35:41 51°23.65 2°52.585 17.66 4.348484 33.090843 -3.020363
2011-07-26 07:35:45 51°23.664 2°52.586 17.6557 4.349936 33.102546 -3.020363
2011-07-26 07:35:51 51°23.684 2°52.587 17.6579 4.35118 33.113133 -3.020363
2011-07-26 07:35:55 51°23.698 2°52.588 17.6713 4.352839 33.127251 -3.020363
2011-07-26 07:36:01 51°23.718 2°52.589 17.6604 4.352839 33.127251 -3.020363
2011-07-26 07:36:05 51°23.732 2°52.591 17.6599 4.354395 33.141137 -3.020363
2011-07-26 07:36:10 51°23.749 2°52.591 17.6551 4.354602 33.142252 -3.020363
2011-07-26 07:36:16 51°23.77 2°52.592 17.6662 4.356262 33.157672 -3.020363
2011-07-26 07:36:21 51°23.787 2°52.593 17.6643 4.357817 33.173512 -3.020363
2011-07-26 07:36:25 51°23.801 2°52.593 17.6659 4.357817 33.173512 -3.020363
2011-07-26 07:36:30 51°23.818 2°52.593 17.6583 4.358232 33.176392 -3.020363
2011-07-26 07:36:36 51°23.838 2°52.592 17.6586 4.358958 33.18192 -3.020363
2011-07-26 07:36:41 51°23.856 2°52.59 17.6652 4.359995 33.192049 -3.020363
2011-07-26 07:36:45 51°23.869 2°52.59 17.6565 4.361344 33.205478 -3.020363
2011-07-26 07:36:50 51°23.886 2°52.588 17.6599 4.362069 33.210356 -3.020363
2011-07-26 07:36:55 51°23.904 2°52.588 17.6621 4.362069 33.210356 -3.020363
2011-07-26 07:37:01 51°23.924 2°52.586 17.6668 4.362899 33.216767 -3.020363
2011-07-26 07:37:05 51°23.937 2°52.585 17.6675 4.363314 33.220299 -3.020363
2011-07-26 07:37:10 51°23.955 2°52.584 17.6599 4.364351 33.230431 -3.020363
2011-07-26 07:37:16 51°23.974 2°52.583 17.6593 4.365492 33.240143 -3.020363
2011-07-26 07:37:21 51°23.99 2°52.583 17.6741 4.36601 33.24521 -3.020363
2011-07-26 07:37:26 51°24.006 2°52.584 17.6787 4.367048 33.25404 -3.020363
2011-07-26 07:37:31 51°24.022 2°52.585 17.6657 4.367048 33.25404 -3.020363
2011-07-26 07:37:36 51°24.039 2°52.585 17.6699 4.367151 33.253619 -3.020363
2011-07-26 07:37:41 51°24.056 2°52.587 17.6627 4.368292 33.260725 -3.020363
2011-07-26 07:37:46 51°24.072 2°52.589 17.6632 4.369329 33.268903 -3.020363
2011-07-26 07:37:50 51°24.085 2°52.59 17.6553 4.370366 33.277733 -3.020363
2011-07-26 07:37:56 51°24.106 2°52.592 17.6548 4.370885 33.279539 -3.020363
2011-07-26 07:38:01 51°24.123 2°52.593 17.6581 4.370885 33.279539 -3.020363
2011-07-26 07:38:05 51°24.137 2°52.595 17.656 4.371611 33.285067 -3.020363
2011-07-26 07:38:11 51°24.157 2°52.597 17.6514 4.372752 33.296086 -3.020363
2011-07-26 07:38:15 51°24.17 2°52.598 17.6619 4.373685 33.30534 -3.020363
2011-07-26 07:38:21 51°24.191 2°52.601 17.6566 4.374411 33.313481 -3.020363
2011-07-26 07:38:25 51°24.204 2°52.602 17.659 4.374411 33.313481 -3.020363
2011-07-26 07:38:30 51°24.221 2°52.603 17.6596 4.375552 33.32581 -3.020363
2011-07-26 07:38:36 51°24.242 2°52.604 17.6473 4.375967 33.329997 -3.020363
2011-07-26 07:38:41 51°24.259 2°52.604 17.6484 4.376589 33.335951 -3.020363
2011-07-26 07:38:45 51°24.272 2°52.604 17.6601 4.377522 33.345864 -3.020363
2011-07-26 07:38:50 51°24.29 2°52.604 17.6564 4.377419 33.34498 -3.020363
2011-07-26 07:38:56 51°24.31 2°52.604 17.6577 4.377834 33.34786 -3.020363
2011-07-26 07:39:01 51°24.327 2°52.604 17.6445 4.377834 33.34786 -3.020363
2011-07-26 07:39:05 51°24.341 2°52.605 17.65 4.377937 33.34809 -3.020363
2011-07-26 07:39:10 51°24.358 2°52.604 17.6518 4.378974 33.358233 -3.020363
2011-07-26 07:39:15 51°24.375 2°52.604 17.6467 4.379597 33.365497 -3.020363
2011-07-26 07:39:21 51°24.395 2°52.605 17.6454 4.379182 33.361309 -3.020363
2011-07-26 07:39:25 51°24.409 2°52.605 17.6446 4.379078 33.359771 -3.020363
2011-07-26 07:39:31 51°24.429 2°52.605 17.6467 4.379078 33.359771 -3.020363
2011-07-26 07:39:35 51°24.443 2°52.605 17.6414 4.380012 33.370341 -3.020363
2011-07-26 07:39:41 51°24.464 2°52.605 17.6517 4.380427 33.375185 -3.020363
2011-07-26 07:39:45 51°24.477 2°52.606 17.6519 4.379908 33.370766 -3.020363
2011-07-26 07:39:51 51°24.498 2°52.607 17.6424 4.380841 33.380029 -3.020363
2011-07-26 07:39:55 51°24.511 2°52.607 17.637 4.380841 33.380029 -3.020363
2011-07-26 07:40:01 51°24.532 2°52.608 17.6457 4.38053 33.378687 -3.020363
2011-07-26 07:40:05 51°24.545 2°52.609 17.6417 4.380945 33.383532 -3.020363
2011-07-26 07:40:11 51°24.566 2°52.611 17.6432 4.380738 33.381764 -3.020363
2011-07-26 07:40:15 51°24.579 2°52.612 17.6508 4.380634 33.38088 -3.020363
2011-07-26 07:40:21 51°24.599 2°52.614 17.6488 4.380427 33.378458 -3.020363
2011-07-26 07:40:25 51°24.612 2°52.615 17.6404 4.380427 33.378458 -3.020363
2011-07-26 07:40:30 51°24.629 2°52.617 17.6324 4.38053 33.381306 -3.020363
2011-07-26 07:40:36 51°24.65 2°52.618 17.6303 4.380634 33.382845 -3.020363
2011-07-26 07:40:41 51°24.666 2°52.619 17.6241 4.380841 33.384613 -3.020363
2011-07-26 07:40:45 51°24.68 2°52.619 17.6296 4.380738 33.384384 -3.020363
2011-07-26 07:40:50 51°24.697 2°52.62 17.6397 4.380323 33.379538 -3.020363
2011-07-26 07:40:56 51°24.717 2°52.62 17.6266 4.380427 33.380422 -3.020363
2011-07-26 07:41:01 51°24.734 2°52.62 17.6214 4.380427 33.380422 -3.020363
2011-07-26 07:41:05 51°24.748 2°52.62 17.6208 4.380738 33.384384 -3.020363
2011-07-26 07:41:10 51°24.764 2°52.621 17.6283 4.381568 33.396041 -3.020363
2011-07-26 07:41:16 51°24.784 2°52.621 17.6266 4.381464 33.397123 -3.020363
2011-07-26 07:41:21 51°24.8 2°52.622 17.6188 4.381568 33.399973 -3.020363
2011-07-26 07:41:25 51°24.813 2°52.622 17.6107 4.381153 33.397092 -3.020363
2011-07-26 07:41:30 51°24.83 2°52.621 17.6049 4.381153 33.397092 -3.020363
2011-07-26 07:41:35 51°24.847 2°52.621 17.6068 4.381153 33.399058 -3.020363
2011-07-26 07:41:41 51°24.867 2°52.62 17.6111 4.380842 33.398372 -3.020363
2011-07-26 07:41:45 51°24.881 2°52.62 17.6161 4.380427 33.39549 -3.020363
2011-07-26 07:41:51 51°24.901 2°52.619 17.6083 4.380012 33.391298 -3.020363
2011-07-26 07:41:55 51°24.914 2°52.618 17.606 4.380012 33.391298 -3.020363
2011-07-26 07:42:01 51°24.935 2°52.618 17.6143 4.379493 33.389498 -3.020363
2011-07-26 07:42:05 51°24.948 2°52.618 17.6133 4.379701 33.395199 -3.020363
2011-07-26 07:42:11 51°24.969 2°52.618 17.6025 4.379182 33.3934 -3.020363
2011-07-26 07:42:15 51°24.982 2°52.619 17.5993 4.378664 33.389633 -3.020363
2011-07-26 07:42:21 51°25.003 2°52.62 17.6243 4.378145 33.3839 -3.020363
2011-07-26 07:42:25 51°25.017 2°52.62 17.6062 4.378145 33.3839 -3.020363
2011-07-26 07:42:31 51°25.037 2°52.623 17.5967 4.377627 33.380788 -3.020363
2011-07-26 07:42:36 51°25.054 2°52.624 17.6042 4.377627 33.382755 -3.020363
2011-07-26 07:42:41 51°25.072 2°52.626 17.6088 4.377316 33.380101 -3.020363
2011-07-26 07:42:45 51°25.085 2°52.627 17.605 4.377316 33.382067 -3.020363
2011-07-26 07:42:50 51°25.103 2°52.628 17.6114 4.377212 33.382494 -3.020363
2011-07-26 07:42:56 51°25.123 2°52.63 17.6103 4.376693 33.37676 -3.020363
2011-07-26 07:43:01 51°25.141 2°52.63 17.6134 4.376693 33.37676 -3.020363
2011-07-26 07:43:05 51°25.154 2°52.63 17.6086 4.377005 33.38138 -3.020363
2011-07-26 07:43:10 51°25.172 2°52.63 17.6148 4.377212 33.384461 -3.020363
2011-07-26 07:43:16 51°25.192 2°52.63 17.6145 4.377212 33.383805 -3.020363
2011-07-26 07:43:21 51°25.21 2°52.629 17.6163 4.377005 33.38138 -3.020363
2011-07-26 07:43:25 51°25.224 2°52.629 17.6241 4.377316 33.383379 -3.020363
2011-07-26 07:43:30 51°25.241 2°52.628 17.6228 4.377316 33.383379 -3.020363
2011-07-26 07:43:36 51°25.261 2°52.626 17.6263 4.378249 33.390028 -3.020363
2011-07-26 07:43:41 51°25.279 2°52.625 17.6215 4.37856 33.392682 -3.020363
2011-07-26 07:43:45 51°25.292 2°52.624 17.6283 4.37856 33.392026 -3.020363
2011-07-26 07:43:50 51°25.309 2°52.622 17.6299 4.37939 33.397791 -3.020363
2011-07-26 07:43:56 51°25.33 2°52.62 17.6382 4.37939 33.397791 -3.020363
2011-07-26 07:44:01 51°25.347 2°52.618 17.63 4.379908 33.400247 -3.020363
2011-07-26 07:44:05 51°25.361 2°52.617 17.6388 4.380427 33.402702 -3.020363
2011-07-26 07:44:10 51°25.378 2°52.616 17.6305 4.380946 33.405157 -3.020363
2011-07-26 07:44:15 51°25.395 2°52.615 17.6348 4.381568 33.409152 -3.020363
2011-07-26 07:44:21 51°25.416 2°52.613 17.6338 4.381983 33.410722 -3.020363
2011-07-26 07:44:25 51°25.43 2°52.613 17.643 4.38219 33.409868 -3.020363
2011-07-26 07:44:31 51°25.45 2°52.611 17.6415 4.38219 33.409868 -3.020363
2011-07-26 07:44:35 51°25.464 2°52.61 17.6384 4.382812 33.413206 -3.020363
2011-07-26 07:44:41 51°25.484 2°52.609 17.6494 4.382916 33.412123 -3.020363
2011-07-26 07:44:45 51°25.498 2°52.609 17.644 4.383538 33.416773 -3.020363
2011-07-26 07:44:51 51°25.518 2°52.609 17.6439 4.383642 33.416346 -3.020363
2011-07-26 07:44:55 51°25.532 2°52.609 17.64 4.38416 33.419456 -3.020363
2011-07-26 07:45:01 51°25.553 2°52.609 17.6369 4.38416 33.419456 -3.020363
2011-07-26 07:45:05 51°25.567 2°52.609 17.6425 4.384264 33.418373 -3.020363
2011-07-26 07:45:11 51°25.587 2°52.609 17.6561 4.384472 33.41883 -3.020363
2011-07-26 07:45:16 51°25.605 2°52.609 17.6444 4.384783 33.418859 -3.020363
2011-07-26 07:45:21 51°25.622 2°52.61 17.6349 4.38499 33.419316 -3.020363
2011-07-26 07:45:25 51°25.636 2°52.61 17.6454 4.38499 33.419316 -3.020363
2011-07-26 07:45:30 51°25.653 2°52.61 17.6411 4.385612 33.42462 -3.020363
2011-07-26 07:45:36 51°25.674 2°52.611 17.6453 4.385612 33.425932 -3.020363
2011-07-26 07:45:41 51°25.691 2°52.612 17.6472 4.386338 33.432121 -3.020363
2011-07-26 07:45:45 51°25.705 2°52.612 17.6382 4.38582 33.425733 -3.020363
2011-07-26 07:45:50 51°25.722 2°52.612 17.6417 4.386546 33.432577 -3.020363
2011-07-26 07:45:55 51°25.74 2°52.613 17.6382 4.386546 33.432577 -3.020363
2011-07-26 07:46:01 51°25.761 2°52.612 17.644 4.386546 33.434545 -3.020363
2011-07-26 07:46:05 51°25.774 2°52.613 17.6524 4.386753 33.436969 -3.020363
2011-07-26 07:46:10 51°25.791 2°52.612 17.6486 4.387064 33.43831 -3.020363
2011-07-26 07:46:15 51°25.808 2°52.612 17.6431 4.386857 33.435885 -3.020363
2011-07-26 07:46:21 51°25.828 2°52.611 17.6395 4.387168 33.438538 -3.020363
2011-07-26 07:46:25 51°25.841 2°52.61 17.6331 4.387583 33.443387 -3.020363
2011-07-26 07:46:30 51°25.858 2°52.609 17.6375 4.387583 33.443387 -3.020363
2011-07-26 07:46:35 51°25.875 2°52.608 17.6357 4.387583 33.443387 -3.020363
2011-07-26 07:46:41 51°25.895 2°52.605 17.632 4.387168 33.437226 -3.020363
2011-07-26 07:46:45 51°25.909 2°52.604 17.6309 4.387272 33.437454 -3.020363
2011-07-26 07:46:51 51°25.929 2°52.602 17.6324 4.387272 33.43811 -3.020363
2011-07-26 07:46:55 51°25.943 2°52.6 17.6357 4.387583 33.44273 -3.020363
2011-07-26 07:47:01 51°25.963 2°52.597 17.6302 4.387583 33.44273 -3.020363
2011-07-26 07:47:05 51°25.977 2°52.595 17.6282 4.387375 33.442274 -3.020363
2011-07-26 07:47:11 51°25.997 2°52.592 17.6316 4.387687 33.445583 -3.020363
2011-07-26 07:47:15 51°26.011 2°52.59 17.6404 4.387998 33.450205 -3.020363
2011-07-26 07:47:21 51°26.031 2°52.587 17.6353 4.38779 33.450405 -3.020363
2011-07-26 07:47:25 51°26.045 2°52.584 17.6228 4.38779 33.450405 -3.020363
2011-07-26 07:47:30 51°26.062 2°52.583 17.6324 4.387894 33.451946 -3.020363
2011-07-26 07:47:36 51°26.083 2°52.58 17.6282 4.38779 33.451718 -3.020363
2011-07-26 07:47:41 51°26.1 2°52.578 17.6264 4.38779 33.453687 -3.020363
2011-07-26 07:47:45 51°26.114 2°52.577 17.6211 4.387168 33.448381 -3.020363
2011-07-26 07:47:50 51°26.131 2°52.575 17.6431 4.386857 33.443759 -3.020363
2011-07-26 07:47:56 51°26.152 2°52.574 17.6208 4.386753 33.442874 -3.020363
2011-07-26 07:48:01 51°26.169 2°52.573 17.6201 4.386753 33.442874 -3.020363
2011-07-26 07:48:05 51°26.183 2°52.572 17.6151 4.386753 33.444187 -3.020363
2011-07-26 07:48:10 51°26.2 2°52.57 17.6205 4.386338 33.441306 -3.020363
2011-07-26 07:48:15 51°26.217 2°52.568 17.6231 4.386546 33.444387 -3.020363
2011-07-26 07:48:21 51°26.238 2°52.567 17.6145 4.386546 33.445043 -3.020363
2011-07-26 07:48:25 51°26.252 2°52.566 17.6271 4.386235 33.44239 -3.020363
2011-07-26 07:48:31 51°26.272 2°52.565 17.6191 4.386235 33.44239 -3.020363
2011-07-26 07:48:35 51°26.286 2°52.564 17.616 4.386442 33.446128 -3.020363
2011-07-26 07:48:41 51°26.306 2°52.563 17.6247 4.38665 33.450523 -3.020363
2011-07-26 07:48:45 51°26.32 2°52.562 17.6053 4.387168 33.454946 -3.020363
2011-07-26 07:48:51 51°26.34 2°52.56 17.6141 4.387894 33.461795 -3.020363
2011-07-26 07:48:55 51°26.354 2°52.558 17.6063 4.387894 33.461795 -3.020363
2011-07-26 07:49:01 51°26.375 2°52.556 17.6104 4.388102 33.464221 -3.020363
2011-07-26 07:49:05 51°26.388 2°52.554 17.6101 4.387894 33.461795 -3.020363
2011-07-26 07:49:11 51°26.409 2°52.552 17.6147 4.388309 33.465334 -3.020363
2011-07-26 07:49:15 51°26.423 2°52.55 17.6044 4.388517 33.46776 -3.020363
2011-07-26 07:49:21 51°26.443 2°52.548 17.6074 4.389035 33.474812 -3.020363
2011-07-26 07:49:25 51°26.457 2°52.546 17.6057 4.389035 33.474812 -3.020363
2011-07-26 07:49:30 51°26.474 2°52.544 17.6031 4.38945 33.481638 -3.020363
2011-07-26 07:49:36 51°26.495 2°52.542 17.6117 4.389865 33.486492 -3.020363
2011-07-26 07:49:41 51°26.512 2°52.54 17.6078 4.39028 33.490689 -3.020363
2011-07-26 07:49:45 51°26.526 2°52.538 17.5999 4.39028 33.490032 -3.020363
2011-07-26 07:49:50 51°26.543 2°52.536 17.601 4.390799 33.495772 -3.020363
2011-07-26 07:49:56 51°26.563 2°52.533 17.6078 4.39111 33.499742 -3.020363
2011-07-26 07:50:01 51°26.58 2°52.531 17.6127 4.39111 33.499742 -3.020363
2011-07-26 07:50:05 51°26.593 2°52.53 17.5974 4.391525 33.50394 -3.020363
2011-07-26 07:50:10 51°26.61 2°52.529 17.5976 4.391628 33.504825 -3.020363
2011-07-26 07:50:16 51°26.63 2°52.527 17.6014 4.392043 33.509024 -3.020363
2011-07-26 07:50:21 51°26.647 2°52.527 17.5954 4.392562 33.514766 -3.020363
2011-07-26 07:50:26 51°26.664 2°52.526 17.6049 4.392354 33.512337 -3.020363
2011-07-26 07:50:31 51°26.68 2°52.526 17.5951 4.392354 33.512337 -3.020363
2011-07-26 07:50:36 51°26.697 2°52.525 17.597 4.392043 33.50705 -3.020363
2011-07-26 07:50:41 51°26.714 2°52.526 17.596 4.392147 33.509251 -3.020363
2011-07-26 07:50:45 51°26.728 2°52.527 17.5938 4.392977 33.520281 -3.020363
2011-07-26 07:50:51 51°26.749 2°52.527 17.593 4.393392 33.525139 -3.020363
2011-07-26 07:50:56 51°26.766 2°52.528 17.5919 4.393392 33.525139 -3.020363
2011-07-26 07:51:01 51°26.783 2°52.529 17.5944 4.39308 33.522483 -3.020363
2011-07-26 07:51:05 51°26.797 2°52.53 17.5901 4.392977 33.521598 -3.020363
2011-07-26 07:51:11 51°26.817 2°52.532 17.5925 4.392873 33.521371 -3.020363
2011-07-26 07:51:16 51°26.834 2°52.533 17.5896 4.392977 33.522915 -3.020363
2011-07-26 07:51:21 51°26.851 2°52.533 17.5909 4.39308 33.525776 -3.020363
2011-07-26 07:51:25 51°26.865 2°52.534 17.5806 4.39308 33.525776 -3.020363
2011-07-26 07:51:31 51°26.886 2°52.536 17.5816 4.392873 33.524005 -3.020363
2011-07-26 07:51:36 51°26.903 2°52.537 17.5769 4.393184 33.527978 -3.020363
2011-07-26 07:51:41 51°26.919 2°52.539 17.584 4.393184 33.529296 -3.020363
2011-07-26 07:51:45 51°26.933 2°52.54 17.5891 4.393184 33.529955 -3.020363
2011-07-26 07:51:51 51°26.953 2°52.541 17.5829 4.393392 33.531725 -3.020363
2011-07-26 07:51:56 51°26.97 2°52.542 17.5752 4.393703 33.5357 -3.020363
2011-07-26 07:52:01 51°26.987 2°52.543 17.5756 4.393703 33.5357 -3.020363
2011-07-26 07:52:05 51°27.001 2°52.543 17.5742 4.394429 33.545853 -3.020363
2011-07-26 07:52:10 51°27.018 2°52.542 17.5816 4.39474 33.550487 -3.020363
2011-07-26 07:52:16 51°27.038 2°52.542 17.575 4.395051 33.553804 -3.020363
2011-07-26 07:52:21 51°27.055 2°52.54 17.5991 4.395674 33.55714 -3.020363
2011-07-26 07:52:25 51°27.069 2°52.538 17.5757 4.396503 33.565545 -3.020363
2011-07-26 07:52:30 51°27.086 2°52.536 17.5723 4.396503 33.565545 -3.020363
2011-07-26 07:52:35 51°27.103 2°52.533 17.574 4.397022 33.571293 -3.020363
2011-07-26 07:52:41 51°27.123 2°52.531 17.5739 4.398163 33.583677 -3.020363
2011-07-26 07:52:45 51°27.137 2°52.529 17.5729 4.398267 33.585223 -3.020363
2011-07-26 07:52:50 51°27.154 2°52.527 17.5716 4.398578 33.586561 -3.020363
2011-07-26 07:52:55 51°27.17 2°52.525 17.5823 4.398578 33.586561 -3.020363
2011-07-26 07:53:01 51°27.19 2°52.523 17.5794 4.398785 33.586352 -3.020363
2011-07-26 07:53:05 51°27.203 2°52.521 17.5728 4.399407 33.592988 -3.020363
2011-07-26 07:53:10 51°27.22 2°52.519 17.5681 4.400237 33.602057 -3.020363
2011-07-26 07:53:16 51°27.241 2°52.517 17.5675 4.400652 33.606922 -3.020363
2011-07-26 07:53:21 51°27.257 2°52.515 17.5716 4.400963 33.610241 -3.020363
2011-07-26 07:53:25 51°27.271 2°52.515 17.5624 4.400859 33.608694 -3.020363
2011-07-26 07:53:31 51°27.291 2°52.513 17.5629 4.400859 33.608694 -3.020363
2011-07-26 07:53:35 51°27.304 2°52.513 17.5601 4.401689 33.615122 -3.020363
2011-07-26 07:53:41 51°27.325 2°52.511 17.5554 4.401897 33.617555 -3.020363
2011-07-26 07:53:45 51°27.338 2°52.511 17.5538 4.402104 33.620649 -3.020363
2011-07-26 07:53:51 51°27.359 2°52.509 17.5621 4.402415 33.62529 -3.020363
2011-07-26 07:53:56 51°27.375 2°52.508 17.561 4.402623 33.628385 -3.020363
2011-07-26 07:54:01 51°27.393 2°52.508 17.5588 4.402623 33.628385 -3.020363
2011-07-26 07:54:05 51°27.406 2°52.507 17.5642 4.402727 33.631916 -3.020363
2011-07-26 07:54:10 51°27.423 2°52.506 17.559 4.40283 33.634786 -3.020363
2011-07-26 07:54:16 51°27.443 2°52.504 17.5579 4.403245 33.640316 -3.020363
2011-07-26 07:54:21 51°27.46 2°52.504 17.5571 4.403245 33.642301 -3.020363
2011-07-26 07:54:25 51°27.474 2°52.503 17.5567 4.403245 33.642301 -3.020363
2011-07-26 07:54:30 51°27.491 2°52.502 17.5565 4.403349 33.643187 -3.020363
2011-07-26 07:54:36 51°27.512 2°52.501 17.5623 4.403142 33.642076 -3.020363
2011-07-26 07:54:41 51°27.528 2°52.5 17.5565 4.403038 33.640528 -3.020363
2011-07-26 07:54:45 51°27.542 2°52.499 17.5583 4.402934 33.63898 -3.020363
2011-07-26 07:54:50 51°27.559 2°52.498 17.5575 4.40283 33.638093 -3.020363
2011-07-26 07:54:56 51°27.58 2°52.497 17.5552 4.40283 33.638093 -3.020363
2011-07-26 07:55:01 51°27.597 2°52.496 17.5535 4.403142 33.641414 -3.020363
2011-07-26 07:55:05 51°27.611 2°52.495 17.5549 4.402934 33.640303 -3.020363
2011-07-26 07:55:10 51°27.628 2°52.494 17.5674 4.40283 33.640078 -3.020363
2011-07-26 07:55:15 51°27.645 2°52.494 17.5601 4.402623 33.638305 -3.020363
2011-07-26 07:55:21 51°27.666 2°52.493 17.5525 4.402623 33.638305 -3.020363
2011-07-26 07:55:25 51°27.68 2°52.493 17.5544 4.402727 33.640515 -3.020363
2011-07-26 07:55:30 51°27.697 2°52.492 17.5573 4.402727 33.640515 -3.020363
2011-07-26 07:55:36 51°27.717 2°52.492 17.5563 4.402623 33.639628 -3.020363
2011-07-26 07:55:41 51°27.735 2°52.491 17.5563 4.402623 33.638967 -3.020363
2011-07-26 07:55:45 51°27.748 2°52.491 17.5513 4.402519 33.636095 -3.020363
2011-07-26 07:55:51 51°27.769 2°52.49 17.5561 4.402519 33.636095 -3.020363
2011-07-26 07:55:56 51°27.786 2°52.489 17.5566 4.403038 33.642513 -3.020363
2011-07-26 07:56:01 51°27.803 2°52.489 17.5555 4.403038 33.642513 -3.020363
2011-07-26 07:56:05 51°27.817 2°52.488 17.558 4.403245 33.644948 -3.020363
2011-07-26 07:56:11 51°27.837 2°52.486 17.5546 4.403038 33.643836 -3.020363
2011-07-26 07:56:16 51°27.854 2°52.485 17.5453 4.403453 33.648044 -3.020363
2011-07-26 07:56:21 51°27.872 2°52.483 17.548 4.403868 33.652253 -3.020363
2011-07-26 07:56:25 51°27.885 2°52.482 17.5524 4.403868 33.652253 -3.020363
2011-07-26 07:56:30 51°27.902 2°52.48 17.5494 4.404179 33.653589 -3.020363
2011-07-26 07:56:36 51°27.923 2°52.479 17.5475 4.404282 33.654476 -3.020363